Data for 03/28/2011

Time Sea-Level Adjusted Pressure Absolute Pressure Temperature Relative Humidity Dew Point Precipitation   
(mb) (inHg) (mb) (inHg) (C) (F) (%) (C) (F) (mm) (in)
00:01 1011 29.85 840 24.81 -1.6 29.1 100 -1.6 29.1 -1.24 -0.049
00:02 1011 29.85 840 24.81 -1.6 29.1 100 -1.6 29.1 -1.285 -0.051
00:03 1011 29.85 840 24.81 -1.6 29 100 -1.6 29 -1.274 -0.05
00:04 1011 29.85 840 24.81 -1.7 29 100 -1.7 29 -1.331 -0.052
00:05 1011 29.85 840 24.81 -1.7 28.9 100 -1.7 28.9 -1.336 -0.053
00:06 1011 29.85 840 24.81 -1.7 28.9 100 -1.7 28.9 -1.382 -0.054
00:07 1011 29.85 840 24.81 -1.8 28.7 100 -1.8 28.7 -1.421 -0.056
00:08 1011 29.85 840 24.81 -1.8 28.7 100 -1.8 28.7 -1.444 -0.057
00:09 1011 29.85 840 24.81 -1.8 28.7 100 -1.8 28.7 -1.416 -0.056
00:10 1011 29.85 840 24.81 -1.8 28.7 100 -1.8 28.7 -1.416 -0.056
00:11 1011 29.85 840 24.81 -1.8 28.8 100 -1.8 28.8 -1.381 -0.054
00:12 1011 29.85 840 24.81 -1.8 28.7 100 -1.8 28.7 -1.438 -0.057
00:13 1011 29.85 840 24.81 -1.8 28.8 100 -1.8 28.8 -1.376 -0.054
00:14 1011 29.85 840 24.81 -1.8 28.7 100 -1.8 28.7 -1.376 -0.054
00:15 1011 29.85 840 24.81 -1.8 28.8 100 -1.8 28.8 -1.353 -0.053
00:16 1011 29.85 840 24.81 -1.8 28.7 100 -1.8 28.7 -1.381 -0.054
00:17 1011 29.85 840 24.81 -1.8 28.7 100 -1.8 28.7 -1.353 -0.053
00:18 1011 29.85 840 24.81 -1.8 28.8 100 -1.8 28.8 -1.336 -0.053
00:19 1011 29.85 840 24.81 -1.8 28.8 100 -1.8 28.8 -1.347 -0.053
00:20 1011 29.85 840 24.81 -1.8 28.8 100 -1.8 28.8 -1.342 -0.053
00:21 1011 29.85 840 24.81 -1.8 28.8 100 -1.8 28.8 -1.376 -0.054
00:22 1011 29.85 840 24.81 -1.8 28.7 100 -1.8 28.7 -1.376 -0.054
00:23 1011 29.85 840 24.81 -1.8 28.8 100 -1.8 28.8 -1.347 -0.053
00:24 1011 29.85 840 24.81 -1.8 28.7 100 -1.8 28.7 -1.381 -0.054
00:25 1011 29.85 840 24.81 -1.8 28.8 100 -1.8 28.8 -1.404 -0.055
00:26 1011 29.85 840 24.81 -1.8 28.7 100 -1.8 28.7 -1.415 -0.056
00:27 1011 29.85 840 24.81 -1.8 28.7 100 -1.8 28.7 -1.421 -0.056
00:28 1011 29.85 840 24.81 -1.9 28.6 100 -1.9 28.6 -1.398 -0.055
00:29 1011 29.85 840 24.81 -1.9 28.6 100 -1.9 28.6 -1.438 -0.057
00:30 1011 29.85 840 24.81 -1.9 28.5 100 -1.9 28.5 -1.444 -0.057
00:31 1011 29.85 840 24.81 -1.9 28.6 100 -1.9 28.6 -1.472 -0.058
00:32 1011 29.85 840 24.81 -1.9 28.6 100 -1.9 28.6 -1.483 -0.058
00:33 1011 29.85 840 24.81 -1.9 28.5 100 -1.9 28.5 -1.512 -0.06
00:34 1011 29.85 840 24.81 -1.9 28.5 100 -1.9 28.5 -1.534 -0.06
00:35 1011 29.85 840 24.81 -2 28.5 100 -2 28.5 -1.551 -0.061
00:36 1011 29.85 840 24.81 -1.9 28.5 100 -1.9 28.5 -1.562 -0.061
00:37 1011 29.85 840 24.81 -2 28.5 100 -2 28.5 -1.562 -0.061
00:38 1011 29.85 840 24.81 -2 28.5 100 -2 28.5 -1.534 -0.06
00:39 1011 29.85 840 24.81 -2 28.4 100 -2 28.4 -1.517 -0.06
00:40 1011 29.85 840 24.81 -2 28.4 100 -2 28.4 -1.562 -0.061
00:41 1011 29.85 840 24.81 -2 28.4 100 -2 28.4 -1.574 -0.062
00:42 1011 29.85 840 24.81 -2 28.4 100 -2 28.4 -1.54 -0.061
00:43 1011 29.85 840 24.81 -2 28.4 100 -2 28.4 -1.534 -0.06
00:44 1011 29.85 840 24.81 -2 28.4 100 -2 28.4 -1.557 -0.061
00:45 1011 29.85 840 24.81 -2 28.4 100 -2 28.4 -1.557 -0.061
00:46 1011 29.85 840 24.81 -2 28.5 100 -2 28.5 -1.545 -0.061
00:47 1011 29.85 840 24.81 -2 28.4 100 -2 28.4 -1.562 -0.061
00:48 1011 29.85 840 24.81 -2 28.4 100 -2 28.4 -1.568 -0.062
00:49 1011 29.85 840 24.81 -2 28.5 100 -2 28.5 -1.568 -0.062
00:50 1011 29.85 840 24.81 -2 28.4 100 -2 28.4 -1.562 -0.061
00:51 1011 29.85 840 24.81 -2 28.4 100 -2 28.4 -1.562 -0.061
00:52 1011 29.85 840 24.81 -2 28.4 100 -2 28.4 -1.574 -0.062
00:53 1011 29.85 840 24.81 -2 28.4 100 -2 28.4 -1.568 -0.062
00:54 1011 29.85 840 24.81 -2 28.4 100 -2 28.4 -1.579 -0.062
00:55 1011 29.85 840 24.81 -2 28.4 100 -2 28.4 -1.619 -0.064
00:56 1011 29.85 840 24.81 -2 28.4 100 -2 28.4 -1.642 -0.065
00:57 1011 29.85 840 24.81 -2 28.3 100 -2 28.3 -1.642 -0.065
00:58 1011 29.85 840 24.81 -2.1 28.3 100 -2.1 28.3 -1.664 -0.066
00:59 1011 29.85 840 24.81 -2.1 28.3 100 -2.1 28.3 -1.642 -0.065
01:00 1011 29.85 840 24.81 -2.1 28.2 100 -2.1 28.2 -1.67 -0.066
01:01 1011 29.85 840 24.81 -2.1 28.2 100 -2.1 28.2 -1.693 -0.067
01:02 1011 29.85 840 24.81 -2.1 28.3 100 -2.1 28.3 -1.71 -0.067
01:03 1011 29.85 840 24.81 -2.1 28.2 100 -2.1 28.2 -1.727 -0.068
01:04 1011 29.85 840 24.81 -2.2 28.1 100 -2.2 28.1 -1.715 -0.068
01:05 1011 29.85 840 24.81 -2.1 28.2 100 -2.1 28.2 -1.744 -0.069
01:06 1011 29.85 840 24.81 -2.1 28.2 100 -2.1 28.2 -1.704 -0.067
01:07 1011 29.85 840 24.81 -2.1 28.2 100 -2.1 28.2 -1.738 -0.068
01:08 1011 29.85 840 24.81 -2.1 28.2 100 -2.1 28.2 -1.71 -0.067
01:09 1011 29.85 840 24.81 -2.1 28.1 100 -2.1 28.1 -1.721 -0.068
01:10 1011 29.85 840 24.81 -2.2 28.1 100 -2.2 28.1 -1.749 -0.069
01:11 1011 29.85 840 24.81 -2.2 28.1 100 -2.2 28.1 -1.727 -0.068
01:12 1011 29.85 840 24.81 -2.1 28.2 100 -2.1 28.2 -1.704 -0.067
01:13 1011 29.85 840 24.81 -2.1 28.1 100 -2.1 28.1 -1.715 -0.068
01:14 1011 29.85 840 24.81 -2.1 28.2 100 -2.1 28.2 -1.67 -0.066
01:15 1011 29.85 840 24.81 -2.1 28.3 100 -2.1 28.3 -1.647 -0.065
01:16 1011 29.85 840 24.81 -2.1 28.2 100 -2.1 28.2 -1.647 -0.065
01:17 1011 29.85 840 24.81 -2.1 28.3 100 -2.1 28.3 -1.63 -0.064
01:18 1011 29.85 840 24.81 -2.1 28.3 100 -2.1 28.3 -1.625 -0.064
01:19 1011 29.85 840 24.81 -2 28.4 100 -2 28.4 -1.625 -0.064
01:20 1011 29.85 840 24.81 -2 28.4 100 -2 28.4 -1.585 -0.062
01:21 1011 29.85 840 24.81 -2 28.4 100 -2 28.4 -1.585 -0.062
01:22 1011 29.85 840 24.81 -2 28.3 100 -2 28.3 -1.579 -0.062
01:23 1011 29.85 840 24.81 -2 28.3 100 -2.1 28.3 -1.636 -0.064
01:24 1011 29.85 840 24.81 -2 28.3 100 -2.1 28.3 -1.659 -0.065
01:25 1011 29.85 840 24.81 -2.1 28.2 100 -2.1 28.2 -1.681 -0.066
01:26 1011 29.85 840 24.81 -2.1 28.2 100 -2.2 28.1 -1.721 -0.068
01:27 1011 29.85 840 24.81 -2.1 28.1 100 -2.2 28.1 -1.749 -0.069
01:28 1011 29.85 840 24.81 -2.2 28.1 100 -2.2 28.1 -1.766 -0.07
01:29 1011 29.85 840 24.81 -2.2 28.1 100 -2.2 28 -1.766 -0.07
01:30 1011 29.85 840 24.81 -2.2 28.1 100 -2.2 28 -1.721 -0.068
01:31 1011 29.85 840 24.81 -2.2 28.1 100 -2.2 28.1 -1.755 -0.069
01:32 1011 29.85 840 24.81 -2.2 28.1 100 -2.2 28 -1.761 -0.069
01:33 1011 29.85 840 24.81 -2.2 28.1 100 -2.2 28 -1.778 -0.07
01:34 1011 29.85 840 24.81 -2.2 28.1 100 -2.2 28 -1.783 -0.07
01:35 1011 29.85 840 24.81 -2.2 28.1 100 -2.2 28 -1.817 -0.072
01:36 1011 29.85 840 24.81 -2.2 28 100 -2.2 28 -1.829 -0.072
01:37 1011 29.85 840 24.81 -2.2 28.1 100 -2.2 28 -1.84 -0.072
01:38 1011 29.85 840 24.81 -2.2 28 100 -2.2 28 -1.829 -0.072
01:39 1011 29.85 840 24.81 -2.2 28 100 -2.2 28 -1.823 -0.072
01:40 1011 29.85 840 24.81 -2.2 28 100 -2.3 27.9 -1.891 -0.074
01:41 1011 29.85 841 24.83 -2.2 28 100 -2.3 27.9 -1.874 -0.074
01:42 1011 29.85 841 24.83 -2.2 28 100 -2.3 27.9 -1.829 -0.072
01:43 1011 29.85 841 24.83 -2.3 27.9 100 -2.3 27.9 -1.812 -0.071
01:44 1011 29.85 841 24.83 -2.2 28 100 -2.2 28 -1.857 -0.073
01:45 1011 29.85 841 24.83 -2.3 27.9 100 -2.3 27.9 -1.891 -0.074
01:46 1011 29.85 841 24.83 -2.4 27.7 100 -2.4 27.7 -2.004 -0.079
01:47 1011 29.85 841 24.83 -2.5 27.4 100 -2.6 27.3 -2.129 -0.084
01:48 1011 29.85 841 24.83 -2.6 27.3 99 -2.7 27.1 -2.203 -0.087
01:49 1011 29.85 841 24.83 -2.7 27.2 99 -2.8 27 -2.316 -0.091
01:50 1011 29.85 841 24.83 -2.8 27 99 -2.8 26.9 -2.361 -0.093
01:51 1011 29.85 841 24.83 -2.8 27 100 -2.8 26.9 -2.395 -0.094
01:52 1011 29.85 841 24.83 -2.8 26.9 100 -2.9 26.8 -2.424 -0.095
01:53 1011 29.85 841 24.83 -2.9 26.9 100 -2.9 26.8 -2.452 -0.097
01:54 1011 29.85 841 24.83 -2.9 26.8 100 -2.9 26.7 -2.514 -0.099
01:55 1011 29.85 841 24.83 -2.9 26.8 100 -3 26.7 -2.52 -0.099
01:56 1011 29.85 841 24.83 -2.9 26.7 100 -3 26.6 -2.52 -0.099
01:57 1011 29.85 841 24.83 -3 26.6 100 -3 26.5 -2.554 -0.101
01:58 1011 29.85 841 24.83 -3 26.6 100 -3 26.5 -2.616 -0.103
01:59 1011 29.85 841 24.83 -3.1 26.5 100 -3.1 26.4 -2.644 -0.104
02:00 1011 29.85 841 24.83 -3.1 26.4 100 -3.2 26.3 -2.701 -0.106
02:01 1011 29.85 841 24.83 -3.1 26.3 100 -3.2 26.2 -2.758 -0.109
02:02 1011 29.85 841 24.83 -3.2 26.3 100 -3.2 26.3 -2.752 -0.108
02:03 1011 29.85 841 24.83 -3.2 26.3 100 -3.2 26.2 -2.775 -0.109
02:04 1011 29.85 841 24.83 -3.1 26.3 100 -3.2 26.3 -2.803 -0.11
02:05 1011 29.85 841 24.83 -3.2 26.3 100 -3.2 26.2 -2.82 -0.111
02:06 1011 29.85 841 24.83 -3.2 26.2 100 -3.2 26.2 -2.814 -0.111
02:07 1011 29.85 841 24.83 -3.2 26.2 100 -3.3 26.1 -2.865 -0.113
02:08 1011 29.85 841 24.83 -3.2 26.2 100 -3.2 26.2 -2.865 -0.113
02:09 1011 29.85 841 24.83 -3.2 26.2 100 -3.3 26.1 -2.826 -0.111
02:10 1011 29.85 841 24.83 -3.2 26.2 100 -3.2 26.2 -2.848 -0.112
02:11 1011 29.85 841 24.83 -3.1 26.3 100 -3.1 26.3 -2.792 -0.11
02:12 1011 29.85 841 24.83 -3.2 26.3 100 -3.2 26.3 -2.809 -0.111
02:13 1011 29.85 841 24.83 -3.1 26.3 100 -3.1 26.3 -2.814 -0.111
02:14 1011 29.85 841 24.83 -3.2 26.3 100 -3.2 26.3 -2.831 -0.111
02:15 1011 29.85 841 24.83 -3.2 26.3 100 -3.2 26.3 -2.831 -0.111
02:16 1011 29.85 841 24.83 -3.2 26.2 100 -3.2 26.2 -2.82 -0.111
02:17 1011 29.85 841 24.83 -3.2 26.2 100 -3.2 26.2 -2.871 -0.113
02:18 1011 29.85 841 24.83 -3.2 26.2 100 -3.2 26.2 -2.86 -0.113
02:19 1011 29.85 841 24.83 -3.2 26.2 100 -3.2 26.2 -2.899 -0.114
02:20 1011 29.85 841 24.83 -3.2 26.2 100 -3.2 26.2 -2.843 -0.112
02:21 1011 29.85 841 24.83 -3.2 26.2 100 -3.2 26.2 -2.843 -0.112
02:22 1011 29.85 841 24.83 -3.3 26.1 100 -3.3 26.1 -2.939 -0.116
02:23 1011 29.85 841 24.83 -3.3 26 100 -3.3 26 -2.928 -0.115
02:24 1011 29.85 841 24.83 -3.3 26.1 100 -3.3 26.1 -2.979 -0.117
02:25 1011 29.85 841 24.83 -3.3 26.1 100 -3.3 26 -2.984 -0.117
02:26 1011 29.85 841 24.83 -3.3 26.1 100 -3.3 26.1 -2.945 -0.116
02:27 1011 29.85 841 24.83 -3.2 26.2 100 -3.2 26.2 -2.933 -0.115
02:28 1011 29.85 841 24.83 -3.2 26.3 100 -3.2 26.3 -2.848 -0.112
02:29 1011 29.85 841 24.83 -3.1 26.5 100 -3.1 26.5 -2.741 -0.108
02:30 1011 29.85 841 24.83 -3 26.6 100 -3 26.6 -2.656 -0.105
02:31 1011 29.85 841 24.83 -3 26.7 100 -3 26.7 -2.593 -0.102
02:32 1011 29.85 841 24.83 -3 26.7 100 -2.9 26.7 -2.588 -0.102
02:33 1011 29.85 841 24.83 -2.9 26.7 100 -2.9 26.7 -2.554 -0.101
02:34 1011 29.85 841 24.83 -2.9 26.8 100 -2.9 26.8 -2.526 -0.099
02:35 1011 29.85 841 24.83 -2.9 26.8 100 -2.9 26.8 -2.543 -0.1
02:36 1011 29.85 841 24.83 -2.9 26.8 100 -2.9 26.8 -2.543 -0.1
02:37 1011 29.85 841 24.83 -2.9 26.9 100 -2.9 26.9 -2.554 -0.101
02:38 1011 29.85 841 24.83 -2.9 26.8 100 -2.9 26.8 -2.526 -0.099
02:39 1011 29.85 841 24.83 -2.9 26.8 100 -2.9 26.8 -2.565 -0.101
02:40 1011 29.85 841 24.83 -3 26.6 100 -3 26.6 -2.599 -0.102
02:41 1011 29.85 841 24.83 -3.1 26.4 100 -3.1 26.4 -2.752 -0.108
02:42 1011 29.85 841 24.83 -3.3 26.1 100 -3.3 26.1 -2.916 -0.115
02:43 1011 29.85 841 24.83 -3.3 26 100 -3.3 26 -2.91 -0.115
02:44 1011 29.85 841 24.83 -3.3 26.1 100 -3.3 26 -2.921 -0.115
02:45 1011 29.85 841 24.83 -3.3 26 100 -3.3 26 -2.966 -0.117
02:46 1011 29.85 841 24.83 -3.3 26.1 100 -3.3 26.1 -2.876 -0.113
02:47 1011 29.85 841 24.83 -3.3 26.2 100 -3.3 26.2 -2.853 -0.112
02:48 1011 29.85 841 24.83 -3.2 26.3 100 -3.2 26.3 -2.796 -0.11
02:49 1011 29.85 841 24.83 -3.2 26.3 100 -3.2 26.3 -2.79 -0.11
02:50 1011 29.85 841 24.83 -3.2 26.2 100 -3.2 26.2 -2.869 -0.113
02:51 1011 29.85 841 24.83 -3.3 26.1 100 -3.3 26.1 -2.892 -0.114
02:52 1011 29.85 841 24.83 -3.4 26 100 -3.4 26 -2.937 -0.116
02:53 1012 29.88 841 24.83 -3.3 26 100 -3.3 26 -2.953 -0.116
02:54 1012 29.88 841 24.83 -3.3 26.1 100 -3.3 26.1 -2.902 -0.114
02:55 1011 29.85 841 24.83 -3.2 26.2 100 -3.2 26.2 -2.851 -0.112
02:56 1012 29.88 841 24.83 -3.2 26.3 100 -3.2 26.3 -2.833 -0.112
02:57 1012 29.88 841 24.83 -3.1 26.4 100 -3.1 26.4 -2.766 -0.109
02:58 1012 29.88 841 24.83 -3.1 26.4 100 -3.1 26.4 -2.725 -0.107
02:59 1011 29.85 841 24.83 -3 26.5 100 -3 26.5 -2.691 -0.106
03:00 1011 29.85 841 24.83 -3 26.5 100 -3 26.5 -2.714 -0.107
03:01 1011 29.85 841 24.83 -3 26.5 100 -3 26.5 -2.691 -0.106
03:02 1011 29.85 841 24.83 -3.1 26.5 100 -3.1 26.5 -2.651 -0.104
03:03 1012 29.88 841 24.83 -3 26.5 100 -3 26.5 -2.714 -0.107
03:04 1012 29.88 841 24.83 -3.1 26.4 100 -3.1 26.4 -2.776 -0.109
03:05 1012 29.88 841 24.83 -3.2 26.2 100 -3.2 26.2 -2.793 -0.11
03:06 1012 29.88 841 24.83 -3.2 26.2 100 -3.2 26.2 -2.832 -0.111
03:07 1012 29.88 841 24.83 -3.3 26 100 -3.3 26 -2.917 -0.115
03:08 1012 29.88 841 24.83 -3.5 25.7 100 -3.5 25.7 -3.047 -0.12
03:09 1012 29.88 841 24.83 -3.7 25.4 100 -3.7 25.3 -3.279 -0.129
03:10 1012 29.88 841 24.83 -3.8 25.1 100 -3.9 25 -3.421 -0.135
03:11 1012 29.88 841 24.83 -3.9 25 100 -4 24.9 -3.551 -0.14
03:12 1012 29.88 841 24.83 -3.9 24.9 100 -3.9 24.9 -3.5 -0.138
03:13 1012 29.88 841 24.83 -3.9 25.1 100 -3.9 25.1 -3.528 -0.139
03:14 1012 29.88 841 24.83 -3.9 25 100 -3.9 25 -3.517 -0.138
03:15 1012 29.88 841 24.83 -4 24.9 100 -4 24.9 -3.619 -0.142
03:16 1012 29.88 841 24.83 -4.1 24.6 100 -4.1 24.6 -3.71 -0.146
03:17 1012 29.88 841 24.83 -4.2 24.5 100 -4.2 24.5 -3.789 -0.149
03:18 1012 29.88 841 24.83 -4.2 24.4 100 -4.2 24.4 -3.834 -0.151
03:19 1012 29.88 841 24.83 -4.2 24.4 100 -4.2 24.4 -3.89 -0.153
03:20 1012 29.88 841 24.83 -4.2 24.4 100 -4.2 24.4 -3.839 -0.151
03:21 1012 29.88 841 24.83 -4.2 24.4 100 -4.2 24.4 -3.821 -0.15
03:22 1012 29.88 841 24.83 -4.1 24.5 100 -4.1 24.5 -3.803 -0.15
03:23 1012 29.88 841 24.83 -4.1 24.7 100 -4.1 24.7 -3.69 -0.145
03:24 1012 29.88 841 24.83 -4 24.9 100 -4 24.9 -3.594 -0.141
03:25 1012 29.88 841 24.83 -3.9 25 100 -3.9 25 -3.548 -0.14
03:26 1012 29.88 841 24.83 -3.8 25.1 100 -3.8 25.1 -3.434 -0.135
03:27 1012 29.88 841 24.83 -3.8 25.2 100 -3.8 25.2 -3.406 -0.134
03:28 1012 29.88 841 24.83 -3.8 25.2 100 -3.8 25.2 -3.349 -0.132
03:29 1012 29.88 841 24.83 -3.7 25.4 100 -3.7 25.4 -3.292 -0.13
03:30 1012 29.88 841 24.83 -3.6 25.6 100 -3.6 25.6 -3.178 -0.125
03:31 1012 29.88 841 24.83 -3.5 25.8 100 -3.4 25.8 -3.133 -0.123
03:32 1012 29.88 841 24.83 -3.4 25.8 100 -3.4 25.8 -2.991 -0.118
03:33 1012 29.88 841 24.83 -3.3 26.1 100 -3.3 26.1 -2.974 -0.117
03:34 1012 29.88 841 24.83 -3.2 26.3 100 -3.2 26.3 -2.821 -0.111
03:35 1012 29.88 841 24.83 -3.2 26.3 100 -3.2 26.3 -2.775 -0.109
03:36 1012 29.88 841 24.83 -3.1 26.4 100 -3.1 26.4 -2.758 -0.109
03:37 1012 29.88 841 24.83 -3 26.6 100 -3 26.6 -2.673 -0.105
03:38 1012 29.88 841 24.83 -3 26.6 100 -3 26.6 -2.611 -0.103
03:39 1012 29.88 841 24.83 -2.9 26.8 100 -2.9 26.8 -2.525 -0.099
03:40 1012 29.88 841 24.83 -2.9 26.9 100 -2.9 26.9 -2.48 -0.098
03:41 1012 29.88 841 24.83 -2.8 26.9 100 -2.8 26.9 -2.412 -0.095
03:42 1012 29.88 841 24.83 -2.8 27 100 -2.8 27 -2.412 -0.095
03:43 1012 29.88 841 24.83 -2.7 27.1 100 -2.7 27.1 -2.361 -0.093
03:44 1012 29.88 841 24.83 -2.7 27.1 100 -2.7 27.1 -2.349 -0.092
03:45 1012 29.88 841 24.83 -2.7 27.1 100 -2.7 27.1 -2.344 -0.092
03:46 1012 29.88 841 24.83 -2.7 27.1 100 -2.7 27.1 -2.304 -0.091
03:47 1012 29.88 841 24.83 -2.7 27.1 100 -2.7 27.1 -2.264 -0.089
03:48 1012 29.88 841 24.83 -2.7 27.2 100 -2.7 27.2 -2.275 -0.09
03:49 1012 29.88 841 24.83 -2.6 27.3 100 -2.6 27.3 -2.241 -0.088
03:50 1012 29.88 841 24.83 -2.6 27.2 100 -2.6 27.2 -2.23 -0.088
03:51 1012 29.88 841 24.83 -2.7 27.2 100 -2.7 27.2 -2.23 -0.088
03:52 1012 29.88 841 24.83 -2.6 27.3 100 -2.6 27.3 -2.224 -0.088
03:53 1012 29.88 841 24.83 -2.6 27.3 100 -2.6 27.3 -2.202 -0.087
03:54 1012 29.88 841 24.83 -2.6 27.3 100 -2.6 27.3 -2.218 -0.087
03:55 1012 29.88 841 24.83 -2.6 27.3 100 -2.6 27.3 -2.196 -0.086
03:56 1012 29.88 841 24.83 -2.6 27.3 100 -2.6 27.3 -2.184 -0.086
03:57 1012 29.88 841 24.83 -2.6 27.4 100 -2.6 27.4 -2.162 -0.085
03:58 1012 29.88 841 24.83 -2.6 27.3 100 -2.6 27.3 -2.218 -0.087
03:59 1012 29.88 841 24.83 -2.6 27.3 100 -2.6 27.3 -2.207 -0.087
04:00 1012 29.88 841 24.83 -2.6 27.3 100 -2.6 27.3 -2.224 -0.088
04:01 1012 29.88 841 24.83 -2.6 27.3 100 -2.6 27.3 -2.184 -0.086
04:02 1012 29.88 841 24.83 -2.6 27.3 100 -2.6 27.3 -2.201 -0.087
04:03 1012 29.88 841 24.83 -2.6 27.3 100 -2.6 27.3 -2.167 -0.085
04:04 1012 29.88 841 24.83 -2.6 27.3 100 -2.6 27.3 -2.201 -0.087
04:05 1012 29.88 841 24.83 -2.6 27.3 100 -2.6 27.3 -2.179 -0.086
04:06 1012 29.88 841 24.83 -2.5 27.4 100 -2.5 27.4 -2.201 -0.087
04:07 1012 29.88 841 24.83 -2.6 27.3 100 -2.6 27.3 -2.15 -0.085
04:08 1012 29.88 841 24.83 -2.6 27.4 100 -2.6 27.4 -2.162 -0.085
04:09 1012 29.88 841 24.83 -2.6 27.4 100 -2.6 27.4 -2.184 -0.086
04:10 1012 29.88 841 24.83 -2.6 27.3 100 -2.6 27.3 -2.145 -0.084
04:11 1012 29.88 841 24.83 -2.6 27.4 100 -2.6 27.4 -2.173 -0.086
04:12 1012 29.88 841 24.83 -2.6 27.3 100 -2.6 27.3 -2.173 -0.086
04:13 1012 29.88 841 24.83 -2.6 27.4 100 -2.6 27.4 -2.173 -0.086
04:14 1012 29.88 841 24.83 -2.6 27.3 100 -2.6 27.3 -2.145 -0.084
04:15 1012 29.88 841 24.83 -2.5 27.4 100 -2.5 27.4 -2.184 -0.086
04:16 1012 29.88 841 24.83 -2.6 27.4 100 -2.6 27.4 -2.19 -0.086
04:17 1012 29.88 841 24.83 -2.6 27.3 100 -2.6 27.3 -2.173 -0.086
04:18 1012 29.88 841 24.83 -2.6 27.4 100 -2.6 27.4 -2.156 -0.085
04:19 1012 29.88 841 24.83 -2.6 27.3 100 -2.6 27.3 -2.184 -0.086
04:20 1012 29.88 841 24.83 -2.6 27.3 100 -2.6 27.3 -2.195 -0.086
04:21 1012 29.88 841 24.83 -2.6 27.4 100 -2.6 27.4 -2.156 -0.085
04:22 1012 29.88 841 24.83 -2.6 27.3 100 -2.6 27.3 -2.161 -0.085
04:23 1012 29.88 841 24.83 -2.6 27.3 100 -2.6 27.3 -2.173 -0.086
04:24 1012 29.88 841 24.83 -2.6 27.3 100 -2.6 27.3 -2.185 -0.086
04:25 1012 29.88 841 24.83 -2.6 27.3 100 -2.6 27.3 -2.202 -0.087
04:26 1012 29.88 841 24.83 -2.6 27.3 100 -2.6 27.3 -2.18 -0.086
04:27 1012 29.88 841 24.83 -2.6 27.3 100 -2.6 27.3 -2.219 -0.087
04:28 1012 29.88 841 24.83 -2.7 27.2 100 -2.6 27.2 -2.202 -0.087
04:29 1012 29.88 841 24.83 -2.6 27.2 100 -2.6 27.2 -2.225 -0.088
04:30 1012 29.88 841 24.83 -2.6 27.3 100 -2.6 27.3 -2.281 -0.09
04:31 1012 29.88 841 24.83 -2.7 27.2 100 -2.7 27.2 -2.225 -0.088
04:32 1012 29.88 841 24.83 -2.7 27.2 100 -2.7 27.2 -2.23 -0.088
04:33 1012 29.88 841 24.83 -2.6 27.3 100 -2.6 27.3 -2.23 -0.088
04:34 1012 29.88 841 24.83 -2.6 27.2 100 -2.6 27.2 -2.241 -0.088
04:35 1012 29.88 841 24.83 -2.7 27.2 100 -2.7 27.2 -2.259 -0.089
04:36 1012 29.88 841 24.83 -2.7 27.1 100 -2.7 27.1 -2.299 -0.091
04:37 1012 29.88 841 24.83 -2.7 27.1 100 -2.7 27.1 -2.322 -0.091
04:38 1012 29.88 841 24.83 -2.8 27 100 -2.8 27 -2.333 -0.092
04:39 1012 29.88 841 24.83 -2.8 27 100 -2.8 27 -2.452 -0.097
04:40 1012 29.88 841 24.83 -2.8 26.9 100 -2.8 26.9 -2.458 -0.097
04:41 1012 29.88 841 24.83 -2.9 26.9 100 -2.9 26.9 -2.503 -0.099
04:42 1012 29.88 841 24.83 -2.9 26.8 100 -2.9 26.8 -2.503 -0.099
04:43 1012 29.88 841 24.83 -2.9 26.8 100 -2.9 26.8 -2.525 -0.099
04:44 1012 29.88 841 24.83 -2.9 26.8 100 -2.9 26.8 -2.509 -0.099
04:45 1012 29.88 841 24.83 -2.9 26.8 100 -2.9 26.8 -2.538 -0.1
04:46 1012 29.88 841 24.83 -2.9 26.8 100 -2.9 26.8 -2.526 -0.099
04:47 1012 29.88 841 24.83 -2.9 26.8 100 -2.9 26.8 -2.493 -0.098
04:48 1012 29.88 841 24.83 -2.9 26.8 100 -2.9 26.8 -2.499 -0.098
04:49 1012 29.88 841 24.83 -2.8 26.9 100 -2.8 26.9 -2.493 -0.098
04:50 1012 29.88 841 24.83 -2.8 26.9 100 -2.8 26.9 -2.487 -0.098
04:51 1012 29.88 841 24.83 -2.9 26.9 100 -2.9 26.9 -2.481 -0.098
04:52 1012 29.88 841 24.83 -2.8 27 100 -2.8 27 -2.425 -0.095
04:53 1012 29.88 841 24.83 -2.8 27 100 -2.8 27 -2.448 -0.096
04:54 1012 29.88 841 24.83 -2.8 27 100 -2.8 27 -2.397 -0.094
04:55 1012 29.88 841 24.83 -2.8 27 100 -2.8 27 -2.397 -0.094
04:56 1012 29.88 841 24.83 -2.8 27 100 -2.8 27 -2.364 -0.093
04:57 1012 29.88 841 24.83 -2.8 27 100 -2.8 27 -2.375 -0.094
04:58 1012 29.88 841 24.83 -2.8 27 100 -2.8 27 -2.369 -0.093
04:59 1012 29.88 841 24.83 -2.8 27 100 -2.8 27 -2.374 -0.093
05:00 1012 29.88 841 24.83 -2.8 27 100 -2.8 27 -2.471 -0.097
05:01 1012 29.88 841 24.83 -2.8 26.9 100 -2.8 26.9 -2.459 -0.097
05:02 1012 29.88 841 24.83 -2.8 26.9 100 -2.8 26.9 -2.47 -0.097
05:03 1012 29.88 841 24.83 -2.9 26.9 100 -2.9 26.9 -2.476 -0.097
05:04 1012 29.88 841 24.83 -2.8 26.9 100 -2.8 26.9 -2.465 -0.097
05:05 1012 29.88 841 24.83 -2.9 26.9 100 -2.9 26.9 -2.442 -0.096
05:06 1012 29.88 841 24.83 -2.8 27 100 -2.8 27 -2.408 -0.095
05:07 1012 29.88 841 24.83 -2.9 26.9 100 -2.9 26.9 -2.443 -0.096
05:08 1012 29.88 841 24.83 -2.8 26.9 100 -2.8 26.9 -2.449 -0.096
05:09 1012 29.88 841 24.83 -2.9 26.9 100 -2.9 26.9 -2.454 -0.097
05:10 1012 29.88 841 24.83 -2.9 26.9 100 -2.9 26.9 -2.483 -0.098
05:11 1012 29.88 841 24.83 -2.9 26.8 100 -2.9 26.8 -2.426 -0.096
05:12 1012 29.88 841 24.83 -2.8 26.9 100 -2.8 26.9 -2.477 -0.098
05:13 1012 29.88 841 24.83 -2.9 26.9 100 -2.9 26.9 -2.478 -0.098
05:14 1012 29.88 841 24.83 -2.8 26.9 100 -2.8 26.9 -2.45 -0.096
05:15 1012 29.88 841 24.83 -2.9 26.9 100 -2.9 26.9 -2.484 -0.098
05:16 1012 29.88 841 24.83 -2.9 26.8 100 -2.9 26.8 -2.477 -0.098
05:17 1012 29.88 841 24.83 -2.9 26.8 100 -2.9 26.8 -2.5 -0.098
05:18 1012 29.88 841 24.83 -2.9 26.8 100 -2.9 26.8 -2.511 -0.099
05:19 1012 29.88 841 24.83 -2.9 26.8 100 -2.9 26.8 -2.523 -0.099
05:20 1012 29.88 841 24.83 -2.9 26.7 100 -2.9 26.7 -2.551 -0.1
05:21 1012 29.88 841 24.83 -2.9 26.7 100 -2.9 26.7 -2.5 -0.098
05:22 1012 29.88 841 24.83 -2.9 26.8 100 -2.9 26.8 -2.529 -0.1
05:23 1012 29.88 841 24.83 -3 26.7 100 -3 26.7 -2.529 -0.1
05:24 1012 29.88 841 24.83 -2.9 26.8 100 -2.9 26.8 -2.518 -0.099
05:25 1012 29.88 841 24.83 -2.9 26.8 100 -2.9 26.8 -2.45 -0.096
05:26 1012 29.88 841 24.83 -2.9 26.8 100 -2.9 26.8 -2.501 -0.098
05:27 1012 29.88 841 24.83 -2.9 26.8 100 -2.9 26.8 -2.473 -0.097
05:28 1012 29.88 842 24.86 -2.9 26.7 100 -2.9 26.7 -2.494 -0.098
05:29 1012 29.88 842 24.86 -2.9 26.7 100 -2.9 26.7 -2.511 -0.099
05:30 1012 29.88 842 24.86 -2.9 26.8 100 -2.9 26.8 -2.511 -0.099
05:31 1012 29.88 842 24.86 -2.9 26.7 100 -2.9 26.7 -2.512 -0.099
05:32 1012 29.88 842 24.86 -2.9 26.7 100 -2.9 26.7 -2.557 -0.101
05:33 1012 29.88 842 24.86 -2.9 26.7 100 -2.9 26.7 -2.563 -0.101
05:34 1012 29.88 842 24.86 -2.9 26.7 100 -2.9 26.7 -2.546 -0.1
05:35 1012 29.88 841 24.83 -2.9 26.8 100 -2.9 26.8 -2.506 -0.099
05:36 1012 29.88 841 24.83 -2.9 26.8 100 -2.9 26.8 -2.472 -0.097
05:37 1012 29.88 841 24.83 -2.9 26.8 100 -2.9 26.8 -2.5 -0.098
05:38 1012 29.88 841 24.83 -2.9 26.8 100 -2.9 26.8 -2.483 -0.098
05:39 1012 29.88 841 24.83 -2.9 26.8 100 -2.9 26.8 -2.517 -0.099
05:40 1012 29.88 841 24.83 -2.9 26.8 100 -2.9 26.8 -2.472 -0.097
05:41 1012 29.88 841 24.83 -2.9 26.8 100 -2.9 26.8 -2.495 -0.098
05:42 1012 29.88 842 24.86 -2.9 26.8 100 -2.9 26.8 -2.472 -0.097
05:43 1012 29.88 842 24.86 -2.8 26.9 100 -2.8 26.9 -2.478 -0.098
05:44 1012 29.88 842 24.86 -2.8 26.9 100 -2.8 26.9 -2.472 -0.097
05:45 1012 29.88 842 24.86 -2.9 26.8 100 -2.9 26.8 -2.455 -0.097
05:46 1012 29.88 842 24.86 -2.9 26.7 100 -2.9 26.7 -2.5 -0.098
05:47 1012 29.88 842 24.86 -3 26.6 100 -3 26.6 -2.545 -0.1
05:48 1012 29.88 842 24.86 -3 26.6 100 -3 26.6 -2.607 -0.103
05:49 1012 29.88 842 24.86 -2.9 26.8 100 -2.9 26.8 -2.561 -0.101
05:50 1012 29.88 842 24.86 -2.9 26.8 100 -2.9 26.8 -2.499 -0.098
05:51 1012 29.88 842 24.86 -2.9 26.9 100 -2.9 26.9 -2.476 -0.097
05:52 1012 29.88 842 24.86 -2.8 27 100 -2.8 27 -2.47 -0.097
05:53 1012 29.88 842 24.86 -2.8 27 100 -2.8 27 -2.385 -0.094
05:54 1012 29.88 842 24.86 -2.8 27 100 -2.8 27 -2.385 -0.094
05:55 1012 29.88 842 24.86 -2.8 27 100 -2.8 27 -2.374 -0.093
05:56 1012 29.88 842 24.86 -2.8 27 100 -2.8 27 -2.357 -0.093
05:57 1012 29.88 842 24.86 -2.8 27 100 -2.8 27 -2.392 -0.094
05:58 1013 29.91 842 24.86 -2.8 26.9 100 -2.8 26.9 -2.443 -0.096
05:59 1013 29.91 842 24.86 -2.9 26.8 100 -2.9 26.8 -2.449 -0.096
06:00 1013 29.91 842 24.86 -2.9 26.8 100 -2.9 26.8 -2.488 -0.098
06:01 1013 29.91 842 24.86 -2.9 26.7 100 -2.9 26.7 -2.488 -0.098
06:02 1013 29.91 842 24.86 -2.9 26.8 100 -2.9 26.8 -2.556 -0.101
06:03 1013 29.91 842 24.86 -2.9 26.8 100 -2.9 26.8 -2.579 -0.102
06:04 1013 29.91 842 24.86 -3 26.7 100 -3 26.7 -2.551 -0.1
06:05 1013 29.91 842 24.86 -3 26.7 100 -3 26.7 -2.568 -0.101
06:06 1013 29.91 842 24.86 -3 26.6 100 -3 26.6 -2.596 -0.102
06:07 1013 29.91 842 24.86 -3 26.6 100 -3 26.6 -2.613 -0.103
06:08 1013 29.91 842 24.86 -3 26.6 100 -3 26.6 -2.625 -0.103
06:09 1013 29.91 842 24.86 -3 26.6 100 -3 26.6 -2.652 -0.104
06:10 1013 29.91 842 24.86 -3 26.6 100 -3 26.6 -2.664 -0.105
06:11 1013 29.91 842 24.86 -3.1 26.5 100 -3.1 26.5 -2.658 -0.105
06:12 1013 29.91 842 24.86 -3 26.5 100 -3 26.5 -2.646 -0.104
06:13 1013 29.91 842 24.86 -3 26.6 100 -3 26.6 -2.646 -0.104
06:14 1013 29.91 842 24.86 -3 26.6 100 -3 26.6 -2.634 -0.104
06:15 1013 29.91 842 24.86 -3 26.6 100 -3 26.6 -2.623 -0.103
06:16 1013 29.91 842 24.86 -3 26.6 100 -3 26.6 -2.628 -0.103
06:17 1013 29.91 842 24.86 -3 26.6 100 -3 26.6 -2.577 -0.101
06:18 1013 29.91 842 24.86 -3 26.6 100 -3 26.6 -2.595 -0.102
06:19 1013 29.91 842 24.86 -2.9 26.7 100 -2.9 26.7 -2.578 -0.101
06:20 1013 29.91 842 24.86 -2.9 26.7 100 -2.9 26.7 -2.516 -0.099
06:21 1013 29.91 842 24.86 -2.9 26.7 100 -2.9 26.7 -2.538 -0.1
06:22 1013 29.91 842 24.86 -2.9 26.7 100 -2.9 26.7 -2.504 -0.099
06:23 1013 29.91 842 24.86 -2.9 26.7 100 -2.9 26.7 -2.538 -0.1
06:24 1013 29.91 842 24.86 -2.9 26.7 100 -2.9 26.7 -2.515 -0.099
06:25 1013 29.91 842 24.86 -3 26.6 100 -3 26.6 -2.566 -0.101
06:26 1013 29.91 842 24.86 -3 26.7 100 -3 26.7 -2.583 -0.102
06:27 1013 29.91 842 24.86 -2.9 26.7 100 -2.9 26.7 -2.582 -0.102
06:28 1013 29.91 842 24.86 -3 26.7 100 -3 26.7 -2.554 -0.101
06:29 1013 29.91 842 24.86 -3 26.6 100 -3 26.6 -2.576 -0.101
06:30 1013 29.91 842 24.86 -3 26.6 100 -3 26.6 -2.565 -0.101
06:31 1013 29.91 842 24.86 -3 26.6 100 -3 26.6 -2.593 -0.102
06:32 1013 29.91 842 24.86 -3 26.6 100 -3 26.6 -2.622 -0.103
06:33 1013 29.91 842 24.86 -3 26.5 100 -3 26.5 -2.593 -0.102
06:34 1013 29.91 842 24.86 -3 26.5 100 -3 26.5 -2.633 -0.104
06:35 1013 29.91 842 24.86 -3 26.5 100 -3 26.5 -2.644 -0.104
06:36 1013 29.91 842 24.86 -3.1 26.4 100 -3.1 26.4 -2.672 -0.105
06:37 1013 29.91 842 24.86 -3.1 26.4 100 -3.1 26.4 -2.672 -0.105
06:38 1013 29.91 842 24.86 -3.1 26.4 100 -3.1 26.4 -2.695 -0.106
06:39 1013 29.91 842 24.86 -3.1 26.4 100 -3.1 26.4 -2.7 -0.106
06:40 1013 29.91 842 24.86 -3.1 26.4 100 -3.1 26.4 -2.746 -0.108
06:41 1013 29.91 842 24.86 -3.1 26.4 100 -3.1 26.4 -2.718 -0.107
06:42 1013 29.91 842 24.86 -3.1 26.4 100 -3.1 26.4 -2.707 -0.107
06:43 1013 29.91 842 24.86 -3.1 26.4 100 -3.1 26.4 -2.73 -0.107
06:44 1013 29.91 842 24.86 -3.1 26.4 100 -3.1 26.4 -2.731 -0.108
06:45 1013 29.91 842 24.86 -3.2 26.3 100 -3.1 26.3 -2.719 -0.107
06:46 1013 29.91 842 24.86 -3.1 26.3 100 -3.1 26.3 -2.725 -0.107
06:47 1013 29.91 842 24.86 -3.1 26.3 100 -3.1 26.3 -2.709 -0.107
06:48 1013 29.91 842 24.86 -3.1 26.3 100 -3.1 26.3 -2.709 -0.107
06:49 1013 29.91 842 24.86 -3.1 26.4 100 -3.1 26.4 -2.72 -0.107
06:50 1013 29.91 842 24.86 -3.1 26.4 100 -3.1 26.4 -2.68 -0.106
06:51 1013 29.91 842 24.86 -3.1 26.4 100 -3.1 26.4 -2.646 -0.104
06:52 1013 29.91 842 24.86 -3.1 26.4 100 -3.1 26.4 -2.714 -0.107
06:53 1013 29.91 842 24.86 -3.1 26.4 100 -3.1 26.4 -2.702 -0.106
06:54 1013 29.91 842 24.86 -3.1 26.4 100 -3.1 26.4 -2.696 -0.106
06:55 1013 29.91 842 24.86 -3.1 26.5 100 -3.1 26.5 -2.651 -0.104
06:56 1013 29.91 842 24.86 -3.1 26.5 100 -3.1 26.5 -2.64 -0.104
06:57 1013 29.91 842 24.86 -3.1 26.4 100 -3.1 26.4 -2.64 -0.104
06:58 1013 29.91 842 24.86 -3.1 26.5 100 -3.1 26.5 -2.657 -0.105
06:59 1013 29.91 842 24.86 -3 26.5 100 -3 26.5 -2.634 -0.104
07:00 1013 29.91 842 24.86 -3.1 26.5 100 -3.1 26.5 -2.668 -0.105
07:01 1013 29.91 842 24.86 -3.1 26.5 100 -3.1 26.5 -2.628 -0.103
07:02 1013 29.91 842 24.86 -3 26.5 100 -3 26.5 -2.662 -0.105
07:03 1013 29.91 842 24.86 -3 26.5 100 -3 26.5 -2.639 -0.104
07:04 1013 29.91 842 24.86 -3 26.5 100 -3 26.5 -2.628 -0.103
07:05 1013 29.91 842 24.86 -3 26.6 100 -3 26.6 -2.622 -0.103
07:06 1013 29.91 842 24.86 -3 26.6 100 -3 26.6 -2.605 -0.103
07:07 1013 29.91 842 24.86 -3 26.6 100 -3 26.6 -2.56 -0.101
07:08 1013 29.91 842 24.86 -3 26.7 100 -3 26.7 -2.559 -0.101
07:09 1013 29.91 842 24.86 -3 26.6 100 -3 26.6 -2.571 -0.101
07:10 1013 29.91 842 24.86 -3 26.6 100 -3 26.6 -2.559 -0.101
07:11 1013 29.91 842 24.86 -3 26.6 100 -3 26.6 -2.582 -0.102
07:12 1013 29.91 842 24.86 -3 26.6 100 -3 26.6 -2.582 -0.102
07:13 1013 29.91 842 24.86 -3 26.7 100 -3 26.7 -2.565 -0.101
07:14 1013 29.91 842 24.86 -2.9 26.8 100 -2.9 26.8 -2.508 -0.099
07:15 1013 29.91 842 24.86 -2.9 26.8 100 -2.9 26.8 -2.502 -0.099
07:16 1013 29.91 842 24.86 -2.8 26.9 100 -2.8 26.9 -2.446 -0.096
07:17 1013 29.91 842 24.86 -2.9 26.9 100 -2.9 26.9 -2.452 -0.097
07:18 1013 29.91 842 24.86 -2.8 26.9 100 -2.8 26.9 -2.407 -0.095
07:19 1013 29.91 842 24.86 -2.8 26.9 100 -2.8 26.9 -2.469 -0.097
07:20 1013 29.91 842 24.86 -2.8 26.9 100 -2.8 26.9 -2.395 -0.094
07:21 1013 29.91 843 24.89 -2.8 27 100 -2.8 27 -2.407 -0.095
07:22 1013 29.91 843 24.89 -2.8 27 100 -2.8 27 -2.372 -0.093
07:23 1013 29.91 843 24.89 -2.8 27 100 -2.8 27 -2.367 -0.093
07:24 1013 29.91 843 24.89 -2.8 27 100 -2.8 27 -2.35 -0.093
07:25 1013 29.91 843 24.89 -2.8 27 100 -2.8 27 -2.344 -0.092
07:26 1013 29.91 843 24.89 -2.8 27 100 -2.8 27 -2.366 -0.093
07:27 1013 29.91 843 24.89 -2.7 27.1 100 -2.7 27.1 -2.304 -0.091
07:28 1013 29.91 843 24.89 -2.7 27.1 100 -2.7 27.1 -2.315 -0.091
07:29 1013 29.91 843 24.89 -2.7 27.1 100 -2.7 27.1 -2.304 -0.091
07:30 1013 29.91 843 24.89 -2.7 27.1 100 -2.7 27.1 -2.293 -0.09
07:31 1013 29.91 843 24.89 -2.7 27.2 100 -2.7 27.2 -2.31 -0.091
07:32 1014 29.94 843 24.89 -2.7 27.1 100 -2.7 27.1 -2.322 -0.091
07:33 1014 29.94 843 24.89 -2.7 27.1 100 -2.7 27.1 -2.339 -0.092
07:34 1014 29.94 843 24.89 -2.7 27.1 100 -2.7 27.1 -2.322 -0.091
07:35 1014 29.94 843 24.89 -2.7 27.1 100 -2.7 27.1 -2.35 -0.093
07:36 1014 29.94 843 24.89 -2.7 27.1 100 -2.7 27.1 -2.333 -0.092
07:37 1014 29.94 843 24.89 -2.7 27.2 100 -2.7 27.2 -2.311 -0.091
07:38 1014 29.94 843 24.89 -2.7 27.2 100 -2.7 27.2 -2.283 -0.09
07:39 1014 29.94 843 24.89 -2.7 27.2 100 -2.7 27.2 -2.249 -0.089
07:40 1014 29.94 843 24.89 -2.7 27.2 100 -2.7 27.2 -2.248 -0.089
07:41 1014 29.94 843 24.89 -2.7 27.2 100 -2.7 27.2 -2.26 -0.089
07:42 1014 29.94 843 24.89 -2.7 27.2 100 -2.7 27.2 -2.254 -0.089
07:43 1014 29.94 843 24.89 -2.7 27.2 100 -2.7 27.2 -2.232 -0.088
07:44 1014 29.94 843 24.89 -2.7 27.2 100 -2.7 27.2 -2.278 -0.09
07:45 1014 29.94 843 24.89 -2.6 27.2 100 -2.6 27.2 -2.272 -0.089
07:46 1014 29.94 843 24.89 -2.7 27.2 100 -2.7 27.2 -2.216 -0.087
07:47 1014 29.94 843 24.89 -2.7 27.2 100 -2.7 27.2 -2.239 -0.088
07:48 1014 29.94 843 24.89 -2.6 27.3 100 -2.6 27.3 -2.239 -0.088
07:49 1014 29.94 843 24.89 -2.6 27.3 100 -2.6 27.3 -2.187 -0.086
07:50 1014 29.94 843 24.89 -2.6 27.3 100 -2.6 27.3 -2.181 -0.086
07:51 1014 29.94 843 24.89 -2.6 27.3 100 -2.6 27.3 -2.119 -0.083
07:52 1014 29.94 843 24.89 -2.5 27.4 100 -2.5 27.4 -2.13 -0.084
07:53 1014 29.94 843 24.89 -2.5 27.5 100 -2.5 27.5 -2.056 -0.081
07:54 1014 29.94 843 24.89 -2.5 27.5 100 -2.5 27.5 -2.051 -0.081
07:55 1014 29.94 843 24.89 -2.5 27.6 100 -2.5 27.6 -2.051 -0.081
07:56 1014 29.94 843 24.89 -2.5 27.5 100 -2.5 27.5 -2.012 -0.079
07:57 1014 29.94 843 24.89 -2.4 27.6 100 -2.4 27.6 -1.972 -0.078
07:58 1014 29.94 843 24.89 -2.4 27.7 100 -2.4 27.7 -1.967 -0.077
07:59 1014 29.94 843 24.89 -2.4 27.7 100 -2.4 27.7 -1.933 -0.076
08:00 1014 29.94 843 24.89 -2.4 27.7 100 -2.4 27.7 -1.91 -0.075
08:01 1014 29.94 843 24.89 -2.3 27.8 100 -2.3 27.8 -1.882 -0.074
08:02 1014 29.94 843 24.89 -2.3 27.8 100 -2.3 27.8 -1.854 -0.073
08:03 1014 29.94 843 24.89 -2.3 27.9 100 -2.3 27.9 -1.798 -0.071
08:04 1014 29.94 843 24.89 -2.3 27.9 100 -2.3 27.9 -1.804 -0.071
08:05 1014 29.94 843 24.89 -2.2 28 100 -2.2 28 -1.798 -0.071
08:06 1014 29.94 843 24.89 -2.2 28 100 -2.2 28 -1.77 -0.07
08:07 1014 29.94 843 24.89 -2.2 28 100 -2.2 28 -1.747 -0.069
08:08 1014 29.94 843 24.89 -2.2 28.1 100 -2.2 28.1 -1.679 -0.066
08:09 1014 29.94 843 24.89 -2.2 28.1 100 -2.2 28.1 -1.679 -0.066
08:10 1014 29.94 843 24.89 -2.2 28.1 100 -2.2 28.1 -1.668 -0.066
08:11 1014 29.94 843 24.89 -2.2 28.1 100 -2.1 28.1 -1.623 -0.064
08:12 1014 29.94 843 24.89 -2.1 28.2 100 -2.1 28.2 -1.589 -0.063
08:13 1014 29.94 843 24.89 -2.1 28.3 100 -2.1 28.3 -1.544 -0.061
08:14 1014 29.94 843 24.89 -2.1 28.3 100 -2.1 28.3 -1.566 -0.062
08:15 1014 29.94 843 24.89 -2.1 28.3 100 -2.1 28.3 -1.533 -0.06
08:16 1014 29.94 843 24.89 -2.1 28.3 100 -2.1 28.3 -1.538 -0.061
08:17 1014 29.94 843 24.89 -2 28.3 100 -2.1 28.3 -1.476 -0.058
08:18 1014 29.94 843 24.89 -2 28.4 100 -2 28.4 -1.459 -0.057
08:19 1014 29.94 843 24.89 -2 28.4 100 -2 28.4 -1.459 -0.057
08:20 1014 29.94 843 24.89 -2 28.4 100 -2 28.3 -1.465 -0.058
08:21 1014 29.94 843 24.89 -2.1 28.3 100 -2.1 28.2 -1.487 -0.059
08:22 1014 29.94 843 24.89 -2 28.3 100 -2.1 28.2 -1.538 -0.061
08:23 1014 29.94 843 24.89 -2 28.3 100 -2.1 28.2 -1.533 -0.06
08:24 1014 29.94 843 24.89 -2.1 28.3 100 -2.1 28.2 -1.522 -0.06
08:25 1014 29.94 843 24.89 -2.1 28.3 100 -2.1 28.2 -1.533 -0.06
08:26 1014 29.94 843 24.89 -2 28.3 100 -2.1 28.2 -1.488 -0.059
08:27 1014 29.94 843 24.89 -2.1 28.3 100 -2.1 28.2 -1.527 -0.06
08:28 1014 29.94 843 24.89 -2 28.3 100 -2.1 28.2 -1.51 -0.059
08:29 1014 29.94 843 24.89 -2 28.4 100 -2.1 28.3 -1.505 -0.059
08:30 1014 29.94 843 24.89 -2 28.3 100 -2.1 28.2 -1.527 -0.06
08:31 1014 29.94 843 24.89 -2.1 28.3 100 -2.1 28.2 -1.55 -0.061
08:32 1014 29.94 843 24.89 -2.1 28.2 99 -2.2 28 -1.624 -0.064
08:33 1014 29.94 843 24.89 -2.1 28.1 99 -2.2 28 -1.641 -0.065
08:34 1014 29.94 843 24.89 -2.2 28.1 99 -2.2 28 -1.658 -0.065
08:35 1014 29.94 843 24.89 -2.2 28.1 99 -2.2 28 -1.709 -0.067
08:36 1014 29.94 843 24.89 -2.2 28.1 99 -2.2 28 -1.76 -0.069
08:37 1014 29.94 843 24.89 -2.2 28 99 -2.3 27.9 -1.777 -0.07
08:38 1014 29.94 843 24.89 -2.2 28 99 -2.3 27.9 -1.789 -0.07
08:39 1014 29.94 843 24.89 -2.2 28 99 -2.3 27.8 -1.835 -0.072
08:40 1014 29.94 843 24.89 -2.2 28 99 -2.3 27.9 -1.812 -0.071
08:41 1014 29.94 843 24.89 -2.3 27.9 99 -2.3 27.8 -1.858 -0.073
08:42 1014 29.94 843 24.89 -2.3 27.9 99 -2.3 27.8 -1.858 -0.073
08:43 1014 29.94 843 24.89 -2.3 27.9 99 -2.3 27.8 -1.847 -0.073
08:44 1014 29.94 843 24.89 -2.3 27.9 99 -2.3 27.8 -1.865 -0.073
08:45 1014 29.94 843 24.89 -2.2 28 99 -2.3 27.8 -1.842 -0.073
08:46 1014 29.94 843 24.89 -2.3 27.9 99 -2.4 27.7 -1.871 -0.074
08:47 1014 29.94 843 24.89 -2.3 27.8 99 -2.4 27.6 -1.899 -0.075
08:48 1014 29.94 843 24.89 -2.4 27.8 99 -2.5 27.5 -1.9 -0.075
08:49 1014 29.94 843 24.89 -2.4 27.8 99 -2.5 27.6 -1.911 -0.075
08:50 1014 29.94 843 24.89 -2.4 27.7 99 -2.5 27.5 -1.928 -0.076
08:51 1014 29.94 843 24.89 -2.4 27.7 99 -2.5 27.5 -1.979 -0.078
08:52 1014 29.94 843 24.89 -2.4 27.7 99 -2.5 27.5 -1.985 -0.078
08:53 1014 29.94 843 24.89 -2.4 27.7 99 -2.5 27.5 -1.968 -0.077
08:54 1014 29.94 843 24.89 -2.4 27.7 99 -2.5 27.5 -2.014 -0.079
08:55 1014 29.94 843 24.89 -2.4 27.6 99 -2.5 27.4 -1.986 -0.078
08:56 1014 29.94 843 24.89 -2.4 27.7 99 -2.5 27.5 -1.946 -0.077
08:57 1014 29.94 843 24.89 -2.4 27.7 99 -2.5 27.5 -1.952 -0.077
08:58 1014 29.94 843 24.89 -2.4 27.7 99 -2.5 27.5 -1.89 -0.074
08:59 1014 29.94 843 24.89 -2.4 27.7 99 -2.5 27.6 -1.913 -0.075
09:00 1014 29.94 843 24.89 -2.4 27.6 99 -2.5 27.5 -1.924 -0.076
09:01 1014 29.94 843 24.89 -2.4 27.7 99 -2.5 27.6 -1.873 -0.074
09:02 1014 29.94 843 24.89 -2.4 27.7 100 -2.5 27.6 -1.873 -0.074
09:03 1014 29.94 843 24.89 -2.4 27.8 100 -2.4 27.6 -1.828 -0.072
09:04 1014 29.94 843 24.89 -2.3 27.8 100 -2.4 27.7 -1.788 -0.07
09:05 1014 29.94 843 24.89 -2.3 27.8 100 -2.4 27.6 -1.771 -0.07
09:06 1014 29.94 844 24.92 -2.3 27.8 99 -2.4 27.7 -1.76 -0.069
09:07 1014 29.94 843 24.89 -2.3 27.8 99 -2.4 27.6 -1.743 -0.069
09:08 1014 29.94 844 24.92 -2.4 27.8 99 -2.5 27.6 -1.754 -0.069
09:09 1014 29.94 844 24.92 -2.3 27.8 99 -2.4 27.6 -1.749 -0.069
09:10 1014 29.94 844 24.92 -2.3 27.9 99 -2.4 27.8 -1.754 -0.069
09:11 1014 29.94 844 24.92 -2.3 27.9 99 -2.4 27.7 -1.698 -0.067
09:12 1014 29.94 844 24.92 -2.3 27.8 99 -2.4 27.6 -1.709 -0.067
09:13 1014 29.94 844 24.92 -2.2 28 99 -2.3 27.8 -1.704 -0.067
09:14 1014 29.94 844 24.92 -2.2 28 99 -2.3 27.8 -1.653 -0.065
09:15 1014 29.94 844 24.92 -2.3 27.9 99 -2.4 27.7 -1.619 -0.064
09:16 1014 29.94 844 24.92 -2.3 27.9 99 -2.4 27.7 -1.624 -0.064
09:17 1014 29.94 844 24.92 -2.2 28 99 -2.3 27.8 -1.579 -0.062
09:18 1014 29.94 844 24.92 -2.2 28 99 -2.3 27.8 -1.579 -0.062
09:19 1014 29.94 844 24.92 -2.2 28 99 -2.3 27.8 -1.511 -0.059
09:20 1014 29.94 844 24.92 -2.2 28.1 99 -2.3 27.9 -1.489 -0.059
09:21 1014 29.94 844 24.92 -2.2 28.1 99 -2.3 27.9 -1.426 -0.056
09:22 1014 29.94 844 24.92 -2.1 28.3 99 -2.2 28 -1.449 -0.057
09:23 1014 29.94 844 24.92 -2.1 28.2 99 -2.3 27.9 -1.438 -0.057
09:24 1014 29.94 844 24.92 -2.1 28.3 99 -2.3 27.9 -1.409 -0.055
09:25 1014 29.94 844 24.92 -2.1 28.2 99 -2.3 27.9 -1.409 -0.055
09:26 1014 29.94 844 24.92 -2.1 28.2 99 -2.3 27.9 -1.375 -0.054
09:27 1014 29.94 844 24.92 -2 28.4 99 -2.2 28.1 -1.392 -0.055
09:28 1014 29.94 844 24.92 -2 28.4 99 -2.2 28 -1.319 -0.052
09:29 1014 29.94 844 24.92 -2 28.4 99 -2.2 28.1 -1.33 -0.052
09:30 1014 29.94 844 24.92 -2 28.5 99 -2.1 28.1 -1.29 -0.051
09:31 1014 29.94 844 24.92 -1.9 28.5 99 -2.1 28.2 -1.268 -0.05
09:32 1014 29.94 844 24.92 -1.9 28.6 99 -2.1 28.2 -1.251 -0.049
09:33 1014 29.94 844 24.92 -1.9 28.6 99 -2.1 28.3 -1.211 -0.048
09:34 1014 29.94 844 24.92 -1.8 28.7 99 -2 28.3 -1.143 -0.045
09:35 1014 29.94 844 24.92 -1.8 28.8 99 -2 28.4 -1.12 -0.044
09:36 1014 29.94 844 24.92 -1.8 28.8 98 -2 28.4 -1.069 -0.042
09:37 1014 29.94 844 24.92 -1.7 28.9 98 -2 28.4 -1.064 -0.042
09:38 1015 29.97 844 24.92 -1.7 28.9 98 -2 28.5 -0.996 -0.039
09:39 1015 29.97 844 24.92 -1.7 29 98 -1.9 28.6 -0.985 -0.039
09:40 1015 29.97 844 24.92 -1.6 29.1 98 -1.9 28.6 -0.934 -0.037
09:41 1015 29.97 844 24.92 -1.6 29.1 98 -1.9 28.6 -0.911 -0.036
09:42 1015 29.97 844 24.92 -1.6 29.2 98 -1.9 28.6 -0.854 -0.034
09:43 1015 29.97 844 24.92 -1.6 29.1 98 -1.9 28.5 -0.854 -0.034
09:44 1015 29.97 844 24.92 -1.5 29.2 98 -1.9 28.7 -0.837 -0.033
09:45 1015 29.97 844 24.92 -1.5 29.2 98 -1.9 28.6 -0.809 -0.032
09:46 1015 29.97 844 24.92 -1.5 29.3 98 -1.9 28.6 -0.803 -0.032
09:47 1015 29.97 844 24.92 -1.5 29.3 97 -1.8 28.7 -0.781 -0.031
09:48 1015 29.97 844 24.92 -1.4 29.4 98 -1.8 28.8 -0.764 -0.03
09:49 1015 29.97 844 24.92 -1.4 29.5 98 -1.7 28.9 -0.679 -0.027
09:50 1015 29.97 844 24.92 -1.3 29.6 97 -1.7 28.9 -0.633 -0.025
09:51 1015 29.97 844 24.92 -1.3 29.6 97 -1.7 28.9 -0.628 -0.025
09:52 1015 29.97 844 24.92 -1.3 29.6 97 -1.7 28.9 -0.633 -0.025
09:53 1015 29.97 844 24.92 -1.3 29.7 97 -1.7 28.9 -0.594 -0.023
09:54 1015 29.97 844 24.92 -1.3 29.7 97 -1.7 28.9 -0.554 -0.022
09:55 1015 29.97 844 24.92 -1.3 29.7 97 -1.7 28.9 -0.548 -0.022
09:56 1015 29.97 844 24.92 -1.3 29.7 97 -1.8 28.8 -0.548 -0.022
09:57 1015 29.97 844 24.92 -1.3 29.7 96 -1.8 28.8 -0.56 -0.022
09:58 1015 29.97 844 24.92 -1.2 29.8 96 -1.7 28.9 -0.514 -0.02
09:59 1015 29.97 844 24.92 -1.2 29.8 96 -1.7 28.9 -0.486 -0.019
10:00 1015 29.97 844 24.92 -1.2 29.8 96 -1.8 28.8 -0.452 -0.018
10:01 1015 29.97 844 24.92 -1.2 29.8 96 -1.8 28.7 -0.435 -0.017
10:02 1015 29.97 844 24.92 -1.2 29.8 96 -1.8 28.8 -0.492 -0.019
10:03 1015 29.97 844 24.92 -1.2 29.9 96 -1.7 28.9 -0.395 -0.016
10:04 1015 29.97 844 24.92 -1.1 30 96 -1.7 29 -0.344 -0.014
10:05 1015 29.97 844 24.92 -1.1 30.1 96 -1.6 29.1 -0.293 -0.012
10:06 1015 29.97 844 24.92 -1 30.2 96 -1.5 29.3 -0.203 -0.008
10:07 1015 29.97 844 24.92 -0.9 30.4 96 -1.5 29.3 -0.129 -0.005
10:08 1015 29.97 844 24.92 -0.9 30.4 95 -1.5 29.2 -0.107 -0.004
10:09 1015 29.97 844 24.92 -0.9 30.3 95 -1.6 29.1 -0.084 -0.003
10:10 1015 29.97 844 24.92 -0.8 30.5 95 -1.5 29.3 -0.005 -0
10:11 1015 29.97 844 24.92 -0.8 30.6 95 -1.5 29.3 0.075 0.003
10:12 1015 29.97 844 24.92 -0.8 30.6 95 -1.5 29.4 0.08 0.003
10:13 1015 29.97 844 24.92 -0.7 30.7 95 -1.4 29.5 0.16 0.006
10:14 1015 29.97 844 24.92 -0.6 30.9 95 -1.4 29.5 0.228 0.009
10:15 1015 29.97 844 24.92 -0.6 30.9 95 -1.4 29.5 0.245 0.01
10:16 1015 29.97 844 24.92 -0.6 31 94 -1.4 29.5 0.267 0.011
10:17 1015 29.97 844 24.92 -0.5 31 94 -1.3 29.6 0.341 0.013
10:18 1015 29.97 844 24.92 -0.5 31.1 95 -1.2 29.8 0.381 0.015
10:19 1015 29.97 844 24.92 -0.4 31.3 94 -1.2 29.8 0.398 0.016
10:20 1015 29.97 844 24.92 -0.4 31.4 93 -1.3 29.7 0.466 0.018
10:21 1015 29.97 844 24.92 -0.4 31.4 94 -1.3 29.7 0.483 0.019
10:22 1015 29.97 844 24.92 -0.3 31.4 93 -1.3 29.7 0.573 0.023
10:23 1015 29.97 844 24.92 -0.3 31.5 93 -1.3 29.7 0.602 0.024
10:24 1015 29.97 844 24.92 -0.3 31.4 93 -1.4 29.6 0.555 0.022
10:25 1015 29.97 844 24.92 -0.3 31.4 93 -1.3 29.6 0.572 0.023
10:26 1015 29.97 844 24.92 -0.3 31.5 92 -1.4 29.6 0.64 0.025
10:27 1015 29.97 844 24.92 -0.3 31.5 92 -1.4 29.5 0.599 0.024
10:28 1015 29.97 844 24.92 -0.3 31.5 92 -1.4 29.5 0.633 0.025
10:29 1015 29.97 844 24.92 -0.2 31.6 93 -1.3 29.7 0.729 0.029
10:30 1015 29.97 844 24.92 -0.1 31.8 92 -1.2 29.9 0.808 0.032
10:31 1015 29.97 844 24.92 -0.1 31.9 92 -1.3 29.7 0.831 0.033
10:32 1015 29.97 844 24.92 -0.1 31.9 91 -1.3 29.6 0.831 0.033
10:33 1015 29.97 844 24.92 -0.1 31.9 92 -1.2 29.8 0.852 0.034
10:34 1015 29.97 844 24.92 0 32 92 -1.2 29.9 0.937 0.037
10:35 1015 29.97 844 24.92 0.1 32.3 92 -1 30.2 1.039 0.041
10:36 1015 29.97 844 24.92 0.2 32.4 92 -1 30.3 1.124 0.044
10:37 1015 29.97 844 24.92 0.4 32.7 91 -0.9 30.4 1.118 0.044
10:38 1015 29.97 844 24.92 0.4 32.8 91 -0.9 30.3 1.146 0.045
10:39 1015 29.97 844 24.92 0.5 32.8 90 -1 30.3 1.214 0.048
10:40 1015 29.97 844 24.92 0.5 32.9 89 -1.1 30.1 1.118 0.044
10:41 1015 29.97 844 24.92 0.5 32.8 89 -1.1 30 1.112 0.044
10:42 1015 29.97 844 24.92 0.5 32.9 90 -1 30.1 1.088 0.043
10:43 1015 29.97 844 24.92 0.5 33 89 -1.1 30 1.127 0.044
10:44 1015 29.97 844 24.92 0.6 33 89 -1 30.3 1.172 0.046
10:45 1015 29.97 844 24.92 0.7 33.2 88 -1 30.1 1.256 0.049
10:46 1015 29.97 844 24.92 0.7 33.2 88 -1 30.1 1.262 0.05
10:47 1015 29.97 844 24.92 0.7 33.3 88 -1.1 30 1.358 0.053
10:48 1015 29.97 844 24.92 0.6 33.1 85 -1.7 29 1.481 0.058
10:49 1015 29.97 844 24.92 0.4 32.7 85 -1.9 28.7 1.555 0.061
10:50 1015 29.97 844 24.92 0.2 32.4 85 -2 28.5 1.617 0.064
10:51 1015 29.97 844 24.92 0.1 32.1 86 -2.1 28.3 1.701 0.067
10:52 1015 29.97 844 24.92 -0 31.9 87 -2 28.4 1.69 0.067
10:53 1015 29.97 844 24.92 -0.1 31.8 86 -2.1 28.1 1.661 0.065
10:54 1015 29.97 844 24.92 -0.2 31.6 86 -2.3 27.9 1.423 0.056
10:55 1015 29.97 844 24.92 -0.3 31.5 87 -2.3 27.9 0.959 0.038
10:56 1015 29.97 845 24.95 -0.4 31.4 87 -2.3 27.8 0.709 0.028
10:57 1015 29.97 844 24.92 -0.4 31.3 87 -2.3 27.8 0.477 0.019
10:58 1015 29.97 845 24.95 -0.4 31.3 88 -2.2 28 0.364 0.014
10:59 1015 29.97 845 24.95 -0.4 31.3 88 -2.2 28.1 0.346 0.014
11:00 1015 29.97 845 24.95 -0.4 31.3 88 -2.1 28.1 0.34 0.013
11:01 1015 29.97 845 24.95 -0.4 31.3 87 -2.3 27.9 0.216 0.009
11:02 1015 29.97 845 24.95 -0.4 31.2 88 -2.2 28 0.221 0.009
11:03 1015 29.97 845 24.95 -0.5 31.2 89 -2.1 28.2 0.255 0.01
11:04 1015 29.97 845 24.95 -0.4 31.2 88 -2.2 28.1 0.232 0.009
11:05 1015 29.97 845 24.95 -0.5 31.1 88 -2.3 27.8 0.176 0.007
11:06 1015 29.97 845 24.95 -0.5 31 88 -2.3 27.8 0.079 0.003
11:07 1015 29.97 845 24.95 -0.6 31 89 -2.2 28.1 0.085 0.003
11:08 1015 29.97 845 24.95 -0.5 31.1 89 -2.1 28.2 0.119 0.005
11:09 1015 29.97 845 24.95 -0.5 31.2 89 -2.1 28.3 0.198 0.008
11:10 1015 29.97 845 24.95 -0.4 31.3 88 -2.1 28.2 0.215 0.008
11:11 1015 29.97 845 24.95 -0.4 31.3 88 -2.2 28.1 0.203 0.008
11:12 1015 29.97 845 24.95 -0.4 31.3 89 -2 28.4 0.232 0.009
11:13 1015 29.97 845 24.95 -0.3 31.4 88 -2.1 28.3 0.237 0.009
11:14 1015 29.97 845 24.95 -0.4 31.3 88 -2.1 28.2 0.277 0.011
11:15 1015 29.97 845 24.95 -0.3 31.4 87 -2.2 28.1 0.271 0.011
11:16 1015 29.97 845 24.95 -0.3 31.4 88 -2.1 28.2 0.226 0.009
11:17 1015 29.97 845 24.95 -0.3 31.5 87 -2.2 28.1 0.333 0.013
11:18 1015 29.97 845 24.95 -0.3 31.5 87 -2.2 28.1 0.322 0.013
11:19 1015 29.97 845 24.95 -0.3 31.5 87 -2.2 28 0.26 0.01
11:20 1016 30 845 24.95 -0.3 31.5 87 -2.2 28 0.322 0.013
11:21 1016 30 845 24.95 -0.3 31.5 87 -2.2 28 0.367 0.014
11:22 1016 30 845 24.95 -0.3 31.5 88 -2 28.4 0.401 0.016
11:23 1016 30 845 24.95 -0.1 31.8 87 -2.1 28.3 0.456 0.018
11:24 1015 29.97 845 24.95 -0.1 31.9 86 -2.1 28.2 0.496 0.02
11:25 1015 29.97 845 24.95 -0.2 31.7 87 -2.2 28.1 0.473 0.019
11:26 1015 29.97 845 24.95 -0.1 31.7 86 -2.1 28.1 0.512 0.02
11:27 1015 29.97 845 24.95 -0.2 31.7 86 -2.2 28.1 0.455 0.018
11:28 1015 29.97 845 24.95 -0.1 31.8 86 -2.1 28.2 0.438 0.017
11:29 1015 29.97 845 24.95 -0 31.9 86 -2.1 28.3 0.46 0.018
11:30 1015 29.97 845 24.95 0 32 86 -2.1 28.2 0.568 0.022
11:31 1015 29.97 845 24.95 0 32 86 -2.1 28.2 0.624 0.025
11:32 1016 30 845 24.95 0 32.1 86 -2.1 28.2 0.816 0.032
11:33 1015 29.97 845 24.95 0.1 32.1 85 -2.1 28.2 0.975 0.038
11:34 1016 30 845 24.95 0.1 32.2 85 -2.1 28.2 1.014 0.04
11:35 1016 30 845 24.95 0.1 32.1 85 -2.2 28 0.98 0.039
11:36 1016 30 845 24.95 0.1 32.1 85 -2.2 28.1 0.895 0.035
11:37 1016 30 845 24.95 0.1 32.2 85 -2.1 28.2 0.974 0.038
11:38 1016 30 845 24.95 0.2 32.3 84 -2.2 28.1 1.025 0.04
11:39 1016 30 845 24.95 0.3 32.5 85 -1.9 28.6 1.121 0.044
11:40 1016 30 845 24.95 0.5 32.9 84 -2 28.4 1.256 0.049
11:41 1016 30 845 24.95 0.5 33 83 -2 28.4 1.3 0.051
11:42 1016 30 845 24.95 0.6 33 84 -1.8 28.7 1.379 0.054
11:43 1016 30 845 24.95 0.7 33.2 83 -1.8 28.7 1.56 0.061
11:44 1016 30 845 24.95 0.7 33.3 83 -1.9 28.6 1.531 0.06
11:45 1016 30 845 24.95 0.8 33.4 82 -2 28.4 1.52 0.06
11:46 1016 30 845 24.95 0.7 33.3 82 -2 28.3 1.536 0.06
11:47 1016 30 845 24.95 0.7 33.2 82 -2 28.4 1.569 0.062
11:48 1016 30 845 24.95 0.6 33.1 82 -2 28.4 1.598 0.063
11:49 1016 30 845 24.95 0.6 33 82 -2.1 28.2 1.563 0.062
11:50 1016 30 845 24.95 0.5 33 83 -2 28.4 1.495 0.059
11:51 1016 30 845 24.95 0.5 32.9 83 -2.1 28.2 1.433 0.056
11:52 1016 30 845 24.95 0.4 32.7 84 -2.1 28.3 1.392 0.055
11:53 1016 30 845 24.95 0.4 32.7 84 -2 28.4 1.307 0.051
11:54 1016 30 845 24.95 0.4 32.8 84 -2 28.3 1.262 0.05
11:55 1016 30 845 24.95 0.4 32.7 84 -2.1 28.2 1.205 0.047
11:56 1016 30 845 24.95 0.4 32.6 84 -2 28.4 1.199 0.047
11:57 1016 30 845 24.95 0.4 32.7 84 -2 28.4 1.295 0.051
11:58 1016 30 845 24.95 0.4 32.8 83 -2 28.3 1.295 0.051
11:59 1016 30 845 24.95 0.5 32.9 83 -2 28.3 1.306 0.051
12:00 1016 30 845 24.95 0.5 33 83 -2.1 28.3 1.368 0.054
12:01 1016 30 845 24.95 0.6 33.1 84 -1.8 28.7 1.413 0.056
12:02 1016 30 845 24.95 0.6 33.2 82 -2 28.3 1.447 0.057
12:03 1016 30 845 24.95 0.6 33.1 82 -2 28.4 1.487 0.059
12:04 1016 30 845 24.95 0.8 33.4 83 -1.8 28.7 1.549 0.061
12:05 1016 30 845 24.95 0.9 33.6 82 -1.9 28.6 1.515 0.06
12:06 1016 30 845 24.95 1 33.8 80 -2 28.4 1.453 0.057
12:07 1016 30 845 24.95 0.9 33.7 81 -2 28.4 1.339 0.053
12:08 1016 30 845 24.95 1 33.8 82 -1.8 28.7 1.402 0.055
12:09 1016 30 845 24.95 1.1 34 81 -1.9 28.6 1.469 0.058
12:10 1016 30 845 24.95 1.1 34 80 -1.9 28.6 1.549 0.061
12:11 1016 30 845 24.95 1.1 33.9 80 -2 28.4 1.571 0.062
12:12 1016 30 845 24.95 1.1 34 80 -1.9 28.6 1.622 0.064
12:13 1016 30 845 24.95 1 33.8 80 -2.1 28.2 1.616 0.064
12:14 1016 30 845 24.95 1 33.9 80 -2 28.4 1.679 0.066
12:15 1016 30 845 24.95 1 33.9 80 -2 28.4 1.724 0.068
12:16 1016 30 845 24.95 1.1 34 80 -1.9 28.5 1.712 0.067
12:17 1016 30 845 24.95 1 33.8 80 -2 28.4 1.633 0.064
12:18 1016 30 845 24.95 1 33.8 80 -2 28.4 1.639 0.065
12:19 1016 30 845 24.95 1 33.8 81 -1.9 28.6 1.729 0.068
12:20 1016 30 845 24.95 1.2 34.1 79 -2.1 28.2 1.831 0.072
12:21 1016 30 845 24.95 1.2 34.1 80 -2 28.5 1.973 0.078
12:22 1016 30 845 24.95 1.2 34.1 79 -2.2 28.1 1.984 0.078
12:23 1016 30 845 24.95 1.1 34 79 -2.2 28.1 1.956 0.077
12:24 1016 30 845 24.95 1.1 34 80 -1.9 28.5 1.983 0.078
12:25 1016 30 845 24.95 1.2 34.1 79 -2 28.3 2.011 0.079
12:26 1016 30 845 24.95 1.2 34.2 78 -2.1 28.1 2.011 0.079
12:27 1016 30 845 24.95 1.3 34.3 79 -2 28.4 2.186 0.086
12:28 1016 30 845 24.95 1.4 34.5 78 -2.1 28.2 2.298 0.09
12:29 1016 30 845 24.95 1.4 34.5 78 -2.1 28.2 2.264 0.089
12:30 1016 30 845 24.95 1.3 34.3 77 -2.2 28 2.094 0.082
12:31 1016 30 845 24.95 1.2 34.1 78 -2.3 27.8 1.918 0.076
12:32 1016 30 845 24.95 1 33.8 79 -2.2 28.1 1.828 0.072
12:33 1016 30 845 24.95 1 33.8 79 -2.3 27.9 1.855 0.073
12:34 1016 30 845 24.95 0.9 33.7 80 -2.2 28 1.855 0.073
12:35 1016 30 845 24.95 1 33.9 80 -2.1 28.2 1.929 0.076
12:36 1016 30 845 24.95 1.1 34 78 -2.3 27.9 2.023 0.08
12:37 1016 30 845 24.95 1.1 34 79 -2.2 28.1 2.051 0.081
12:38 1016 30 845 24.95 1.2 34.2 78 -2.1 28.2 2.17 0.085
12:39 1016 30 845 24.95 1.3 34.3 79 -2 28.4 2.248 0.089
12:40 1016 30 845 24.95 1.4 34.5 78 -2 28.3 2.282 0.09
12:41 1016 30 845 24.95 1.3 34.4 77 -2.3 27.9 2.185 0.086
12:42 1016 30 845 24.95 1.3 34.4 77 -2.2 28 2.082 0.082
12:43 1016 30 845 24.95 1.3 34.4 77 -2.3 27.8 2.009 0.079
12:44 1016 30 845 24.95 1.2 34.2 77 -2.3 27.9 1.85 0.073
12:45 1016 30 845 24.95 1.3 34.3 77 -2.3 27.8 1.855 0.073
12:46 1016 30 845 24.95 1.2 34.2 77 -2.4 27.7 1.826 0.072
12:47 1016 30 845 24.95 1.3 34.3 77 -2.2 28 1.849 0.073
12:48 1016 30 845 24.95 1.3 34.4 76 -2.4 27.8 1.927 0.076
12:49 1016 30 845 24.95 1.4 34.5 77 -2.2 28 1.995 0.079
12:50 1016 30 845 24.95 1.4 34.6 76 -2.3 27.9 2.046 0.081
12:51 1016 30 845 24.95 1.5 34.7 76 -2.2 28.1 2.176 0.086
12:52 1016 30 845 24.95 1.5 34.7 75 -2.4 27.6 2.198 0.087
12:53 1016 30 845 24.95 1.5 34.7 75 -2.4 27.7 2.238 0.088
12:54 1016 30 845 24.95 1.5 34.7 75 -2.5 27.6 2.238 0.088
12:55 1016 30 845 24.95 1.5 34.7 76 -2.3 27.8 2.209 0.087
12:56 1016 30 845 24.95 1.5 34.7 76 -2.4 27.7 2.3 0.091
12:57 1016 30 845 24.95 1.5 34.8 75 -2.5 27.5 2.316 0.091
12:58 1016 30 845 24.95 1.6 34.9 75 -2.4 27.8 2.362 0.093
12:59 1016 30 845 24.95 1.6 34.9 74 -2.5 27.4 2.452 0.097
13:00 1016 30 845 24.95 1.7 35.1 75 -2.3 27.8 2.542 0.1
13:01 1016 30 845 24.95 1.8 35.2 73 -2.5 27.5 2.61 0.103
13:02 1016 30 845 24.95 1.8 35.2 74 -2.4 27.8 2.627 0.103
13:03 1016 30 845 24.95 1.8 35.3 74 -2.3 27.9 2.791 0.11
13:04 1016 30 845 24.95 2 35.5 73 -2.5 27.6 2.882 0.113
13:05 1016 30 845 24.95 2.2 35.9 71 -2.6 27.3 3.159 0.124
13:06 1016 30 845 24.95 2.1 35.8 71 -2.7 27.2 3.091 0.122
13:07 1016 30 845 24.95 1.9 35.4 70 -2.9 26.7 2.802 0.11
13:08 1016 30 845 24.95 1.8 35.2 73 -2.5 27.4 2.678 0.105
13:09 1016 30 845 24.95 1.9 35.4 70 -2.9 26.7 2.825 0.111
13:10 1016 30 845 24.95 2 35.5 70 -2.9 26.8 2.921 0.115
13:11 1016 30 845 24.95 2 35.6 68 -3.3 26.1 2.91 0.115
13:12 1016 30 845 24.95 2.2 35.9 69 -2.9 26.7 3.028 0.119
13:13 1016 30 845 24.95 2.6 36.6 67 -2.9 26.7 3.396 0.134
13:14 1016 30 845 24.95 2.5 36.6 67 -2.9 26.7 3.504 0.138
13:15 1016 30 845 24.95 2.4 36.3 66 -3.2 26.2 3.362 0.132
13:16 1016 30 845 24.95 2.2 36 67 -3.2 26.2 3.102 0.122
13:17 1016 30 845 24.95 2.3 36.1 67 -3.2 26.2 3.022 0.119
13:18 1016 30 845 24.95 2.1 35.8 70 -2.9 26.8 2.887 0.114
13:19 1016 30 845 24.95 2.1 35.8 70 -2.8 26.9 2.994 0.118
13:20 1016 30 845 24.95 2.2 35.9 69 -2.9 26.9 3.09 0.122
13:21 1016 30 845 24.95 2.3 36.1 67 -3.2 26.3 3.085 0.121
13:22 1016 30 845 24.95 2.3 36.2 67 -3.3 26.1 3.124 0.123
13:23 1016 30 845 24.95 2.4 36.3 66 -3.2 26.2 3.185 0.125
13:24 1016 30 845 24.95 2.6 36.7 67 -2.9 26.8 3.349 0.132
13:25 1016 30 845 24.95 2.6 36.7 66 -3.2 26.3 3.44 0.135
13:26 1016 30 845 24.95 2.5 36.5 66 -3.2 26.3 3.338 0.131
13:27 1016 30 845 24.95 2.5 36.6 67 -2.9 26.7 3.406 0.134
13:28 1016 30 845 24.95 2.8 37 67 -2.8 27 3.638 0.143
13:29 1016 30 845 24.95 2.8 37.1 66 -2.9 26.7 3.789 0.149
13:30 1016 30 845 24.95 2.7 36.9 65 -3.1 26.4 3.671 0.145
13:31 1016 30 845 24.95 2.5 36.6 67 -3 26.6 3.473 0.137
13:32 1016 30 845 24.95 2.6 36.6 66 -3.1 26.5 3.511 0.138
13:33 1016 30 845 24.95 2.5 36.5 66 -3.1 26.4 3.438 0.135
13:34 1016 30 845 24.95 2.4 36.2 66 -3.4 26 3.228 0.127
13:35 1016 30 845 24.95 2.2 35.9 67 -3.4 25.9 3.063 0.121
13:36 1016 30 845 24.95 2.1 35.9 67 -3.3 26.1 3.007 0.118
13:37 1016 30 845 24.95 2.1 35.8 68 -3.1 26.4 2.989 0.118
13:38 1016 30 845 24.95 2.2 35.9 68 -3.2 26.3 2.999 0.118
13:39 1016 30 845 24.95 2.2 35.9 68 -3.1 26.4 3.033 0.119
13:40 1016 30 845 24.95 2.3 36.1 67 -3.2 26.2 3.01 0.119
13:41 1016 30 845 24.95 2.2 36 67 -3.2 26.2 2.976 0.117
13:42 1016 30 845 24.95 2.2 36 67 -3.3 26 3.021 0.119
13:43 1016 30 845 24.95 2.3 36.1 65 -3.6 25.6 3.1 0.122
13:44 1016 30 845 24.95 2.3 36.1 66 -3.5 25.7 3.003 0.118
13:45 1016 30 845 24.95 2.2 36 67 -3.2 26.2 2.895 0.114
13:46 1016 30 845 24.95 2.2 35.9 67 -3.4 25.9 2.952 0.116
13:47 1016 30 845 24.95 2.2 36 67 -3.2 26.2 2.98 0.117
13:48 1016 30 845 24.95 2.3 36.1 70 -2.6 27.3 2.997 0.118
13:49 1016 30 845 24.95 2.2 35.9 68 -3.1 26.5 2.957 0.116
13:50 1016 30 845 24.95 2.1 35.7 70 -2.8 27 2.77 0.109
13:51 1016 30 845 24.95 2.1 35.7 68 -3.2 26.3 2.747 0.108
13:52 1016 30 845 24.95 2 35.5 68 -3.3 26.1 2.583 0.102
13:53 1016 30 845 24.95 1.9 35.4 69 -3.2 26.3 2.515 0.099
13:54 1016 30 845 24.95 1.9 35.4 70 -3 26.7 2.561 0.101
13:55 1016 30 845 24.95 1.9 35.5 70 -3 26.6 2.594 0.102
13:56 1016 30 845 24.95 1.9 35.5 67 -3.5 25.7 2.559 0.101
13:57 1016 30 845 24.95 1.9 35.4 68 -3.4 25.8 2.605 0.103
13:58 1016 30 845 24.95 1.9 35.4 68 -3.4 25.9 2.627 0.103
13:59 1016 30 845 24.95 2 35.5 68 -3.2 26.2 2.717 0.107
14:00 1016 30 845 24.95 2 35.6 67 -3.5 25.6 2.824 0.111
14:01 1016 30 845 24.95 2.1 35.8 67 -3.4 25.8 2.92 0.115
14:02 1016 30 845 24.95 2.2 35.9 65 -3.7 25.4 2.954 0.116
14:03 1016 30 845 24.95 2.2 36 66 -3.5 25.7 2.937 0.116
14:04 1016 30 845 24.95 2.3 36.2 67 -3.1 26.3 3.095 0.122
14:05 1016 30 845 24.95 2.4 36.4 66 -3.3 26.1 3.174 0.125
14:06 1016 30 845 24.95 2.6 36.7 65 -3.4 25.9 3.31 0.13
14:07 1016 30 845 24.95 2.8 37 64 -3.5 25.7 3.519 0.139
14:08 1016 30 845 24.95 2.9 37.1 63 -3.4 25.8 3.688 0.145
14:09 1016 30 845 24.95 2.9 37.1 65 -3.1 26.5 3.767 0.148
14:10 1016 30 845 24.95 2.9 37.2 63 -3.5 25.7 3.807 0.15
14:11 1016 30 845 24.95 2.8 37 60 -4.1 24.6 3.677 0.145
14:12 1016 30 845 24.95 2.7 36.9 61 -4.1 24.7 3.614 0.142
14:13 1016 30 845 24.95 2.6 36.8 63 -3.7 25.3 3.546 0.14
14:14 1016 30 845 24.95 2.5 36.5 64 -3.7 25.3 3.292 0.13
14:15 1016 30 845 24.95 2.4 36.3 63 -3.9 25 3.082 0.121
14:16 1016 30 845 24.95 2.3 36.2 64 -3.9 25.1 2.991 0.118
14:17 1016 30 845 24.95 2.3 36.1 65 -3.7 25.3 2.907 0.114
14:18 1016 30 845 24.95 2.3 36.1 66 -3.5 25.8 2.952 0.116
14:19 1016 30 845 24.95 2.3 36.2 65 -3.6 25.5 3.02 0.119
14:20 1016 30 845 24.95 2.4 36.3 65 -3.5 25.7 2.963 0.117
14:21 1016 30 845 24.95 2.3 36.2 64 -3.8 25.2 3.025 0.119
14:22 1016 30 845 24.95 2.3 36.1 65 -3.6 25.5 3.025 0.119
14:23 1016 30 845 24.95 2.3 36.1 65 -3.6 25.5 3.065 0.121
14:24 1016 30 845 24.95 2.3 36.1 65 -3.5 25.7 3.036 0.12
14:25 1016 30 845 24.95 2.4 36.3 63 -4.1 24.7 3.098 0.122
14:26 1016 30 845 24.95 2.4 36.3 62 -4.1 24.6 3.065 0.121
14:27 1016 30 845 24.95 2.3 36.1 64 -3.7 25.3 2.985 0.118
14:28 1016 30 845 24.95 2.3 36.1 60 -4.6 23.8 3.013 0.119
14:29 1016 30 845 24.95 2.4 36.2 63 -3.9 25 3.076 0.121
14:30 1016 30 845 24.95 2.5 36.5 60 -4.6 23.7 3.228 0.127
14:31 1016 30 845 24.95 2.5 36.5 63 -3.9 24.9 3.189 0.126
14:32 1016 30 845 24.95 2.5 36.4 59 -4.8 23.4 3.121 0.123
14:33 1016 30 845 24.95 2.4 36.3 64 -3.8 25.2 2.957 0.116
14:34 1016 30 845 24.95 2.3 36.2 61 -4.5 23.9 2.866 0.113
14:35 1016 30 845 24.95 2.3 36.1 61 -4.5 23.9 2.793 0.11
14:36 1016 30 845 24.95 2.3 36.1 61 -4.5 23.8 2.764 0.109
14:37 1016 30 845 24.95 2.2 36 61 -4.6 23.8 2.736 0.108
14:38 1016 30 845 24.95 2.3 36.1 62 -4.2 24.4 2.793 0.11
14:39 1016 30 845 24.95 2.3 36.1 59 -4.9 23.1 2.81 0.111
14:40 1016 30 845 24.95 2.3 36.1 60 -4.7 23.5 2.811 0.111
14:41 1016 30 845 24.95 2.3 36.1 59 -4.9 23.1 3.094 0.122
14:42 1016 30 845 24.95 2.4 36.3 60 -4.6 23.7 3.344 0.132
14:43 1016 30 845 24.95 2.5 36.4 59 -4.7 23.5 3.412 0.134
14:44 1016 30 845 24.95 2.5 36.4 60 -4.4 24 3.406 0.134
14:45 1016 30 845 24.95 2.5 36.4 58 -5 23 3.294 0.13
14:46 1016 30 845 24.95 2.5 36.5 61 -4.3 24.2 3.322 0.131
14:47 1016 30 845 24.95 2.6 36.6 59 -4.7 23.5 3.424 0.135
14:48 1016 30 845 24.95 2.6 36.6 56 -5.2 22.6 3.249 0.128
14:49 1016 30 845 24.95 2.6 36.7 58 -4.9 23.1 3.238 0.127
14:50 1016 30 845 24.95 2.6 36.7 57 -5.1 22.8 3.204 0.126
14:51 1016 30 845 24.95 2.6 36.6 58 -5 23.1 3.142 0.124
14:52 1016 30 845 24.95 2.6 36.7 57 -5 23 3.182 0.125
14:53 1016 30 845 24.95 2.7 36.8 59 -4.5 23.8 3.182 0.125
14:54 1016 30 845 24.95 2.7 36.9 62 -3.8 25.2 3.347 0.132
14:55 1016 30 845 24.95 2.9 37.2 61 -4 24.8 3.46 0.136
14:56 1016 30 845 24.95 3 37.4 56 -5 23 3.692 0.145
14:57 1016 30 845 24.95 3 37.4 55 -5.3 22.5 3.709 0.146
14:58 1016 30 845 24.95 3 37.4 55 -5.2 22.6 3.709 0.146
14:59 1016 30 845 24.95 3.1 37.6 58 -4.3 24.3 3.834 0.151
15:00 1016 30 845 24.95 3.1 37.6 53 -5.5 22 3.828 0.151
15:01 1016 30 845 24.95 3 37.5 57 -4.6 23.6 3.743 0.147
15:02 1016 30 845 24.95 3.2 37.7 55 -4.9 23.1 3.885 0.153
15:03 1016 30 845 24.95 3.4 38.1 57 -4.3 24.3 4.072 0.16
15:04 1016 30 845 24.95 3.4 38 51 -5.7 21.7 4.032 0.159
15:05 1016 30 845 24.95 3.2 37.7 54 -5.3 22.5 3.8 0.15
15:06 1016 30 845 24.95 3.1 37.7 53 -5.4 22.2 3.829 0.151
15:07 1016 30 845 24.95 3.1 37.6 57 -4.6 23.7 3.738 0.147
15:08 1016 30 845 24.95 3.1 37.6 54 -5.3 22.5 3.772 0.149
15:09 1016 30 845 24.95 3.2 37.8 58 -4.3 24.3 3.806 0.15
15:10 1016 30 845 24.95 3.2 37.8 56 -4.7 23.6 3.823 0.151
15:11 1016 30 845 24.95 3.1 37.5 57 -4.6 23.8 3.625 0.143
15:12 1016 30 845 24.95 3 37.4 55 -5.2 22.6 3.631 0.143
15:13 1016 30 845 24.95 3 37.4 55 -5.2 22.6 3.648 0.144
15:14 1016 30 845 24.95 3.1 37.5 54 -5.4 22.2 3.761 0.148
15:15 1016 30 845 24.95 3 37.4 56 -4.9 23.2 3.727 0.147
15:16 1016 30 845 24.95 2.9 37.2 54 -5.5 22.1 3.614 0.142
15:17 1016 30 845 24.95 2.9 37.2 54 -5.5 22.1 3.654 0.144
15:18 1016 30 845 24.95 3.1 37.5 55 -5.1 22.8 3.778 0.149
15:19 1016 30 845 24.95 3.3 37.9 58 -4.1 24.6 4.095 0.161
15:20 1016 30 845 24.95 3.6 38.4 54 -4.9 23.1 4.322 0.17
15:21 1016 30 845 24.95 3.8 38.8 53 -5 23 4.52 0.178
15:22 1016 30 845 24.95 3.8 38.8 52 -5.3 22.5 4.514 0.178
15:23 1016 30 845 24.95 3.6 38.5 52 -5.3 22.4 4.395 0.173
15:24 1016 30 845 24.95 3.4 38.1 52 -5.5 22.1 4.18 0.165
15:25 1016 30 845 24.95 3.3 38 53 -5.3 22.5 4.01 0.158
15:26 1016 30 845 24.95 3.2 37.7 52 -5.6 21.8 3.767 0.148
15:27 1016 30 845 24.95 3.3 37.9 58 -4.3 24.3 3.869 0.152
15:28 1016 30 845 24.95 3.4 38.1 55 -4.7 23.5 4.078 0.161
15:29 1016 30 845 24.95 3.3 38 53 -5.4 22.3 4.067 0.16
15:30 1016 30 845 24.95 3.4 38.1 56 -4.6 23.6 4.129 0.163
15:31 1016 30 845 24.95 3.4 38.1 58 -4.1 24.7 4.152 0.163
15:32 1016 30 845 24.95 3.4 38.1 55 -4.9 23.2 4.107 0.162
15:33 1016 30 845 24.95 3.3 37.9 55 -4.9 23.2 3.96 0.156
15:34 1016 30 845 24.95 3.3 38 56 -4.6 23.6 3.977 0.157
15:35 1016 30 845 24.95 3.2 37.8 56 -4.7 23.5 3.807 0.15
15:36 1016 30 845 24.95 3.2 37.8 60 -3.9 25 3.597 0.142
15:37 1016 30 845 24.95 3 37.5 57 -4.6 23.8 3.479 0.137
15:38 1016 30 845 24.95 2.8 37.1 61 -4.1 24.7 3.286 0.129
15:39 1016 30 845 24.95 2.6 36.7 70 -2.4 27.8 3.094 0.122
15:40 1016 30 846 24.98 2.1 35.8 75 -1.8 28.8 2.602 0.102
15:41 1016 30 845 24.95 1.6 34.9 77 -1.9 28.5 2.064 0.081
15:42 1016 30 845 24.95 1.1 34 78 -2.2 28 1.572 0.062
15:43 1016 30 845 24.95 0.7 33.2 81 -2.2 28 1.136 0.045
15:44 1016 30 846 24.98 0.3 32.6 84 -2 28.4 0.876 0.034
15:45 1016 30 846 24.98 0.2 32.4 85 -1.9 28.5 0.712 0.028
15:46 1016 30 846 24.98 0.1 32.3 86 -1.9 28.5 0.593 0.023
15:47 1016 30 846 24.98 -0 32 87 -2 28.4 0.447 0.018
15:48 1016 30 846 24.98 -0.2 31.7 88 -1.9 28.5 0.323 0.013
15:49 1016 30 846 24.98 -0.2 31.6 89 -1.8 28.7 0.232 0.009
15:50 1016 30 846 24.98 -0.3 31.4 89 -2 28.4 0.147 0.006
15:51 1017 30.03 846 24.98 -0.4 31.2 90 -1.9 28.6 0.028 0.001
15:52 1017 30.03 846 24.98 -0.6 31 90 -2 28.5 -0.13 -0.005
15:53 1017 30.03 846 24.98 -0.7 30.8 90 -2.2 28 -0.237 -0.009
15:54 1017 30.03 846 24.98 -0.8 30.6 90 -2.3 27.9 -0.321 -0.013
15:55 1017 30.03 846 24.98 -0.9 30.5 88 -2.6 27.4 -0.417 -0.016
15:56 1017 30.03 846 24.98 -1 30.3 90 -2.4 27.6 -0.49 -0.019
15:57 1017 30.03 846 24.98 -1 30.2 91 -2.3 27.9 -0.507 -0.02
15:58 1017 30.03 846 24.98 -1.1 30.1 90 -2.5 27.6 -0.609 -0.024
15:59 1017 30.03 846 24.98 -1.2 29.9 92 -2.4 27.8 -0.716 -0.028
16:00 1017 30.03 846 24.98 -1.2 29.8 92 -2.4 27.7 -0.756 -0.03
16:01 1017 30.03 846 24.98 -1.2 29.8 93 -2.2 28 -0.755 -0.03
16:02 1017 30.03 846 24.98 -1.2 29.8 92 -2.3 27.8 -0.766 -0.03
16:03 1017 30.03 846 24.98 -1.3 29.7 93 -2.3 27.9 -0.772 -0.03
16:04 1017 30.03 846 24.98 -1.3 29.7 93 -2.2 28 -0.766 -0.03
16:05 1017 30.03 846 24.98 -1.3 29.6 93 -2.3 27.9 -0.822 -0.032
16:06 1017 30.03 846 24.98 -1.3 29.7 94 -2.2 28.1 -0.868 -0.034
16:07 1017 30.03 846 24.98 -1.4 29.6 94 -2.3 27.9 -0.856 -0.034
16:08 1017 30.03 846 24.98 -1.4 29.5 94 -2.2 28 -0.89 -0.035
16:09 1017 30.03 846 24.98 -1.4 29.5 94 -2.2 28 -0.879 -0.035
16:10 1017 30.03 846 24.98 -1.4 29.4 94 -2.4 27.8 -0.952 -0.037
16:11 1017 30.03 846 24.98 -1.5 29.4 94 -2.3 27.9 -0.992 -0.039
16:12 1017 30.03 846 24.98 -1.5 29.3 94 -2.3 27.8 -1.003 -0.039
16:13 1017 30.03 846 24.98 -1.5 29.3 95 -2.2 28 -1.003 -0.039
16:14 1017 30.03 846 24.98 -1.5 29.3 96 -2.1 28.2 -0.946 -0.037
16:15 1017 30.03 846 24.98 -1.4 29.5 96 -1.9 28.5 -0.872 -0.034
16:16 1017 30.03 846 24.98 -1.3 29.6 97 -1.8 28.8 -0.787 -0.031
16:17 1017 30.03 846 24.98 -1.2 29.8 97 -1.7 29 -0.703 -0.028
16:18 1017 30.03 846 24.98 -1.1 30 96 -1.6 29.1 -0.601 -0.024
16:19 1017 30.03 846 24.98 -1.1 30.1 96 -1.6 29.1 -0.582 -0.023
16:20 1017 30.03 846 24.98 -1 30.2 96 -1.6 29.2 -0.497 -0.02
16:21 1017 30.03 846 24.98 -0.9 30.4 94 -1.7 28.9 -0.412 -0.016
16:22 1017 30.03 846 24.98 -0.8 30.6 91 -2 28.3 -0.355 -0.014
16:23 1017 30.03 846 24.98 -0.6 30.9 89 -2.2 28.1 -0.134 -0.005
16:24 1017 30.03 846 24.98 -0.5 31.1 87 -2.5 27.6 -0.049 -0.002
16:25 1017 30.03 846 24.98 -0.4 31.3 86 -2.5 27.5 0.106 0.004
16:26 1017 30.03 846 24.98 -0.3 31.5 86 -2.3 27.9 0.219 0.009
16:27 1017 30.03 846 24.98 -0.2 31.6 84 -2.6 27.4 0.259 0.01
16:28 1017 30.03 846 24.98 -0.2 31.6 85 -2.4 27.7 0.272 0.011
16:29 1017 30.03 846 24.98 -0.2 31.6 87 -2.2 28.1 0.255 0.01
16:30 1017 30.03 846 24.98 -0.2 31.7 87 -2.1 28.2 0.295 0.012
16:31 1017 30.03 846 24.98 -0.3 31.5 88 -2 28.4 0.24 0.009
16:32 1017 30.03 846 24.98 -0.4 31.3 90 -1.9 28.6 0.143 0.006
16:33 1017 30.03 846 24.98 -0.5 31.1 91 -1.8 28.7 0.03 0.001
16:34 1017 30.03 846 24.98 -0.5 31 93 -1.6 29.1 -0.014 -0.001
16:35 1017 30.03 846 24.98 -0.6 30.9 93 -1.6 29 -0.036 -0.001
16:36 1017 30.03 846 24.98 -0.7 30.8 94 -1.6 29.2 -0.172 -0.007
16:37 1017 30.03 846 24.98 -0.8 30.6 94 -1.6 29.1 -0.273 -0.011
16:38 1017 30.03 846 24.98 -0.8 30.5 95 -1.5 29.3 -0.285 -0.011
16:39 1017 30.03 846 24.98 -0.8 30.5 95 -1.5 29.3 -0.318 -0.013
16:40 1017 30.03 846 24.98 -0.8 30.5 96 -1.4 29.4 -0.312 -0.012
16:41 1017 30.03 846 24.98 -0.8 30.5 96 -1.3 29.6 -0.301 -0.012
16:42 1017 30.03 846 24.98 -0.8 30.5 96 -1.4 29.5 -0.278 -0.011
16:43 1017 30.03 846 24.98 -0.8 30.6 96 -1.3 29.7 -0.278 -0.011
16:44 1017 30.03 846 24.98 -0.7 30.7 97 -1.2 29.8 -0.232 -0.009
16:45 1017 30.03 846 24.98 -0.7 30.7 97 -1.2 29.8 -0.221 -0.009
16:46 1017 30.03 846 24.98 -0.7 30.7 96 -1.3 29.7 -0.226 -0.009
16:47 1017 30.03 846 24.98 -0.7 30.7 96 -1.3 29.7 -0.26 -0.01
16:48 1017 30.03 846 24.98 -0.7 30.7 96 -1.2 29.8 -0.237 -0.009
16:49 1017 30.03 846 24.98 -0.8 30.6 96 -1.3 29.7 -0.265 -0.01
16:50 1017 30.03 846 24.98 -0.8 30.6 96 -1.3 29.7 -0.305 -0.012
16:51 1017 30.03 846 24.98 -0.8 30.6 96 -1.3 29.7 -0.277 -0.011
16:52 1017 30.03 846 24.98 -0.8 30.6 96 -1.3 29.7 -0.288 -0.011
16:53 1017 30.03 846 24.98 -0.7 30.7 97 -1.2 29.8 -0.265 -0.01
16:54 1017 30.03 846 24.98 -0.8 30.6 96 -1.3 29.7 -0.254 -0.01
16:55 1017 30.03 846 24.98 -0.7 30.7 96 -1.2 29.8 -0.237 -0.009
16:56 1017 30.03 846 24.98 -0.7 30.7 96 -1.3 29.7 -0.22 -0.009
16:57 1017 30.03 846 24.98 -0.7 30.7 96 -1.2 29.8 -0.197 -0.008
16:58 1017 30.03 846 24.98 -0.7 30.8 96 -1.2 29.8 -0.18 -0.007
16:59 1017 30.03 846 24.98 -0.7 30.8 96 -1.2 29.8 -0.168 -0.007
17:00 1017 30.03 846 24.98 -0.6 30.9 96 -1.2 29.9 -0.106 -0.004
17:01 1017 30.03 846 24.98 -0.6 31 96 -1.1 30 -0.089 -0.004
17:02 1017 30.03 846 24.98 -0.6 31 96 -1.1 30 -0.038 -0.001
17:03 1017 30.03 846 24.98 -0.6 31 96 -1.2 29.9 -0.021 -0.001
17:04 1017 30.03 846 24.98 -0.6 31 95 -1.3 29.7 -0.089 -0.004
17:05 1017 30.03 846 24.98 -0.6 30.9 95 -1.3 29.7 -0.1 -0.004
17:06 1017 30.03 846 24.98 -0.6 30.9 95 -1.3 29.6 -0.139 -0.005
17:07 1017 30.03 846 24.98 -0.6 30.9 95 -1.3 29.7 -0.11 -0.004
17:08 1017 30.03 846 24.98 -0.6 30.9 95 -1.4 29.6 -0.184 -0.007
17:09 1017 30.03 846 24.98 -0.6 30.9 95 -1.3 29.7 -0.171 -0.007
17:10 1017 30.03 846 24.98 -0.6 30.9 95 -1.3 29.6 -0.12 -0.005
17:11 1017 30.03 846 24.98 -0.6 31 95 -1.3 29.7 -0.086 -0.003
17:12 1017 30.03 846 24.98 -0.5 31 95 -1.3 29.7 -0.074 -0.003
17:13 1017 30.03 846 24.98 -0.6 31 95 -1.3 29.7 -0.091 -0.004
17:14 1017 30.03 846 24.98 -0.5 31.1 94 -1.3 29.7 -0.063 -0.002
17:15 1017 30.03 846 24.98 -0.5 31.1 94 -1.3 29.7 -0.056 -0.002
17:16 1017 30.03 846 24.98 -0.5 31.2 94 -1.3 29.7 0.023 0.001
17:17 1017 30.03 846 24.98 -0.5 31.2 94 -1.3 29.7 0.012 0
17:18 1017 30.03 846 24.98 -0.4 31.2 94 -1.3 29.7 0.069 0.003
17:19 1017 30.03 846 24.98 -0.4 31.4 94 -1.2 29.8 0.114 0.004
17:20 1017 30.03 846 24.98 -0.3 31.5 94 -1.1 30 0.177 0.007
17:21 1017 30.03 846 24.98 -0.2 31.6 94 -1.1 30.1 0.234 0.009
17:22 1017 30.03 846 24.98 -0.1 31.8 94 -1 30.2 0.369 0.015
17:23 1017 30.03 846 24.98 -0 31.9 93 -1 30.2 0.511 0.02
17:24 1017 30.03 846 24.98 0 32 92 -1.1 30.1 0.557 0.022
17:25 1017 30.03 846 24.98 0.1 32.2 92 -1.1 30.1 0.63 0.025
17:26 1017 30.03 846 24.98 0.2 32.3 91 -1.2 29.9 0.687 0.027
17:27 1017 30.03 846 24.98 0.2 32.4 91 -1 30.1 0.761 0.03
17:28 1017 30.03 846 24.98 0.3 32.6 91 -1 30.3 0.834 0.033
17:29 1017 30.03 846 24.98 0.4 32.7 92 -0.8 30.5 0.909 0.036
17:30 1017 30.03 846 24.98 0.4 32.8 89 -1.1 30 0.932 0.037
17:31 1017 30.03 846 24.98 0.4 32.7 90 -1.1 30 0.853 0.034
17:32 1017 30.03 846 24.98 0.4 32.7 90 -1.1 30 0.888 0.035
17:33 1017 30.03 846 24.98 0.4 32.7 89 -1.3 29.7 0.832 0.033
17:34 1017 30.03 846 24.98 0.4 32.7 88 -1.3 29.7 0.888 0.035
17:35 1017 30.03 846 24.98 0.4 32.7 89 -1.2 29.8 0.854 0.034
17:36 1017 30.03 846 24.98 0.5 32.8 89 -1.2 29.8 0.973 0.038
17:37 1017 30.03 846 24.98 0.5 32.9 87 -1.4 29.6 1.03 0.041
17:38 1017 30.03 846 24.98 0.6 33 88 -1.3 29.7 1.076 0.042
17:39 1017 30.03 846 24.98 0.6 33.2 89 -0.9 30.4 1.133 0.045
17:40 1017 30.03 846 24.98 0.7 33.3 88 -1.1 30.1 1.223 0.048
17:41 1017 30.03 846 24.98 0.7 33.2 89 -1 30.2 1.229 0.048
17:42 1017 30.03 846 24.98 0.7 33.3 88 -1 30.2 1.325 0.052
17:43 1017 30.03 846 24.98 0.8 33.4 88 -0.9 30.3 1.359 0.054
17:44 1017 30.03 847 25.01 0.8 33.4 88 -1 30.2 1.393 0.055
17:45 1017 30.03 847 25.01 0.9 33.5 87 -1.1 30 1.377 0.054
17:46 1017 30.03 847 25.01 0.9 33.6 88 -0.9 30.4 1.445 0.057
17:47 1017 30.03 847 25.01 1 33.8 88 -0.7 30.7 1.502 0.059
17:48 1017 30.03 847 25.01 1.1 33.9 86 -1 30.2 1.627 0.064
17:49 1017 30.03 847 25.01 1 33.9 86 -1.1 30 1.581 0.062
17:50 1017 30.03 847 25.01 1.1 33.9 86 -1 30.2 1.598 0.063
17:51 1017 30.03 847 25.01 1.1 34 85 -1.1 30 1.631 0.064
17:52 1017 30.03 847 25.01 1.1 33.9 83 -1.5 29.3 1.569 0.062
17:53 1017 30.03 847 25.01 1 33.8 83 -1.5 29.2 1.461 0.058
17:54 1017 30.03 847 25.01 1 33.7 83 -1.6 29.1 1.421 0.056
17:55 1017 30.03 847 25.01 0.9 33.7 84 -1.5 29.3 1.427 0.056
17:56 1017 30.03 847 25.01 1 33.8 83 -1.5 29.2 1.421 0.056
17:57 1017 30.03 847 25.01 1 33.8 82 -1.7 28.9 1.461 0.058
17:58 1017 30.03 847 25.01 1 33.8 81 -1.8 28.7 1.426 0.056
17:59 1017 30.03 847 25.01 0.9 33.7 81 -1.9 28.5 1.409 0.055
18:00 1017 30.03 847 25.01 1 33.8 81 -2 28.5 1.415 0.056
18:01 1017 30.03 847 25.01 1 33.8 82 -1.7 28.9 1.443 0.057
18:02 1017 30.03 847 25.01 1 33.8 80 -2.1 28.2 1.398 0.055
18:03 1017 30.03 847 25.01 1 33.8 81 -1.9 28.5 1.42 0.056
18:04 1017 30.03 847 25.01 1 33.8 80 -2 28.4 1.414 0.056
18:05 1017 30.03 847 25.01 1 33.7 80 -2.1 28.3 1.38 0.054
18:06 1017 30.03 847 25.01 1 33.7 81 -2 28.4 1.386 0.055
18:07 1017 30.03 847 25.01 1 33.8 80 -2 28.3 1.448 0.057
18:08 1017 30.03 847 25.01 1 33.9 78 -2.4 27.7 1.471 0.058
18:09 1017 30.03 847 25.01 1 33.8 79 -2.3 27.9 1.465 0.058
18:10 1017 30.03 847 25.01 1 33.9 79 -2.2 28 1.437 0.057
18:11 1017 30.03 847 25.01 1 33.9 79 -2.1 28.2 1.55 0.061
18:12 1017 30.03 847 25.01 1.1 33.9 79 -2.2 28 1.499 0.059
18:13 1017 30.03 847 25.01 1.1 33.9 79 -2.2 28.1 1.51 0.059
18:14 1017 30.03 847 25.01 1.1 33.9 79 -2.1 28.1 1.51 0.059
18:15 1017 30.03 847 25.01 1.1 33.9 78 -2.4 27.8 1.51 0.059
18:16 1017 30.03 847 25.01 1 33.8 78 -2.5 27.6 1.493 0.059
18:17 1018 30.06 847 25.01 1 33.8 78 -2.4 27.7 1.453 0.057
18:18 1018 30.06 847 25.01 1 33.9 77 -2.5 27.5 1.482 0.058
18:19 1018 30.06 847 25.01 1.1 33.9 77 -2.4 27.6 1.521 0.06
18:20 1018 30.06 847 25.01 1.1 34.1 78 -2.2 28.1 1.617 0.064
18:21 1018 30.06 847 25.01 1.2 34.1 77 -2.4 27.7 1.651 0.065
18:22 1018 30.06 847 25.01 1.2 34.1 79 -2 28.4 1.685 0.066
18:23 1018 30.06 847 25.01 1.2 34.2 77 -2.3 27.9 1.736 0.068
18:24 1018 30.06 847 25.01 1.2 34.2 79 -2 28.4 1.742 0.069
18:25 1018 30.06 847 25.01 1.3 34.3 79 -2 28.3 1.782 0.07
18:26 1018 30.06 847 25.01 1.3 34.3 77 -2.3 27.8 1.782 0.07
18:27 1018 30.06 847 25.01 1.2 34.2 77 -2.4 27.6 1.685 0.066
18:28 1018 30.06 847 25.01 1.2 34.2 77 -2.3 27.8 1.656 0.065
18:29 1018 30.06 847 25.01 1.2 34.1 78 -2.3 27.8 1.65 0.065
18:30 1018 30.06 847 25.01 1.1 34 77 -2.5 27.5 1.627 0.064
18:31 1018 30.06 847 25.01 1.1 33.9 77 -2.5 27.4 1.541 0.061
18:32 1018 30.06 847 25.01 1 33.8 77 -2.6 27.3 1.484 0.058
18:33 1018 30.06 847 25.01 1 33.7 77 -2.6 27.4 1.445 0.057
18:34 1018 30.06 847 25.01 0.9 33.7 77 -2.6 27.4 1.427 0.056
18:35 1018 30.06 847 25.01 0.9 33.7 77 -2.6 27.3 1.404 0.055
18:36 1018 30.06 847 25.01 0.9 33.6 77 -2.7 27.2 1.376 0.054
18:37 1018 30.06 847 25.01 0.8 33.5 76 -2.9 26.8 1.347 0.053
18:38 1018 30.06 847 25.01 0.8 33.5 76 -2.9 26.8 1.285 0.051
18:39 1018 30.06 847 25.01 0.8 33.4 77 -2.8 27 1.256 0.049
18:40 1018 30.06 847 25.01 0.8 33.4 77 -2.8 27 1.25 0.049
18:41 1018 30.06 847 25.01 0.7 33.3 78 -2.8 27 1.261 0.05
18:42 1018 30.06 847 25.01 0.7 33.2 77 -2.9 26.8 1.148 0.045
18:43 1018 30.06 847 25.01 0.6 33.1 78 -2.8 26.9 1.108 0.044
18:44 1018 30.06 847 25.01 0.6 33.1 78 -2.8 26.9 1.08 0.043
18:45 1018 30.06 847 25.01 0.6 33 78 -2.9 26.8 1.068 0.042
18:46 1018 30.06 847 25.01 0.6 33 77 -2.9 26.7 1.045 0.041
18:47 1018 30.06 847 25.01 0.5 32.9 78 -2.9 26.7 1.04 0.041
18:48 1018 30.06 847 25.01 0.5 32.8 78 -2.9 26.8 1.006 0.04
18:49 1018 30.06 847 25.01 0.4 32.7 79 -2.9 26.8 0.915 0.036
18:50 1018 30.06 847 25.01 0.3 32.6 79 -2.9 26.8 0.87 0.034
18:51 1018 30.06 847 25.01 0.3 32.5 79 -2.9 26.8 0.79 0.031
18:52 1018 30.06 847 25.01 0.3 32.5 80 -2.8 26.9 0.796 0.031
18:53 1018 30.06 847 25.01 0.3 32.5 80 -2.7 27.1 0.756 0.03
18:54 1018 30.06 847 25.01 0.3 32.5 80 -2.7 27.1 0.779 0.031
18:55 1018 30.06 847 25.01 0.3 32.5 80 -2.7 27.1 0.813 0.032
18:56 1018 30.06 847 25.01 0.3 32.5 80 -2.7 27.1 0.773 0.03
18:57 1018 30.06 847 25.01 0.3 32.5 81 -2.7 27.2 0.75 0.03
18:58 1018 30.06 847 25.01 0.2 32.3 81 -2.7 27.2 0.682 0.027
18:59 1018 30.06 847 25.01 0.1 32.1 81 -2.7 27.1 0.603 0.024
19:00 1018 30.06 847 25.01 -0.1 31.9 82 -2.8 26.9 0.535 0.021
19:01 1018 30.06 847 25.01 -0.1 31.8 82 -2.8 26.9 0.376 0.015
19:02 1018 30.06 847 25.01 -0.3 31.5 83 -2.9 26.8 0.325 0.013
19:03 1018 30.06 847 25.01 -0.4 31.3 83 -3 26.6 0.213 0.008
19:04 1018 30.06 847 25.01 -0.5 31.2 83 -3 26.6 0.072 0.003
19:05 1018 30.06 847 25.01 -0.6 31 84 -3 26.6 -0.03 -0.001
19:06 1018 30.06 847 25.01 -0.7 30.8 84 -3 26.5 -0.148 -0.006
19:07 1018 30.06 847 25.01 -0.7 30.7 85 -3 26.6 -0.25 -0.01
19:08 1018 30.06 847 25.01 -0.8 30.6 85 -2.9 26.7 -0.284 -0.011
19:09 1018 30.06 847 25.01 -0.8 30.6 86 -2.9 26.8 -0.278 -0.011
19:10 1018 30.06 847 25.01 -0.8 30.6 86 -2.9 26.9 -0.272 -0.011
19:11 1018 30.06 847 25.01 -0.7 30.8 86 -2.8 27 -0.192 -0.008
19:12 1018 30.06 847 25.01 -0.6 31 86 -2.6 27.3 -0.113 -0.004
19:13 1018 30.06 847 25.01 -0.4 31.3 86 -2.5 27.5 0.057 0.002
19:14 1018 30.06 847 25.01 -0.2 31.6 86 -2.3 27.8 0.216 0.009
19:15 1018 30.06 847 25.01 -0.1 31.9 85 -2.3 27.9 0.403 0.016
19:16 1018 30.06 847 25.01 0.1 32.2 84 -2.3 27.9 0.505 0.02
19:17 1018 30.06 847 25.01 0.1 32.3 82 -2.5 27.5 0.607 0.024
19:18 1018 30.06 847 25.01 0.1 32.2 82 -2.6 27.4 0.591 0.023
19:19 1018 30.06 847 25.01 0.1 32.2 83 -2.5 27.5 0.647 0.025
19:20 1018 30.06 847 25.01 0.2 32.3 83 -2.4 27.6 0.698 0.027
19:21 1018 30.06 847 25.01 0.3 32.5 82 -2.4 27.6 0.773 0.03
19:22 1018 30.06 847 25.01 0.2 32.4 82 -2.5 27.4 0.739 0.029
19:23 1018 30.06 847 25.01 0.1 32.3 82 -2.5 27.4 0.751 0.03
19:24 1018 30.06 847 25.01 0 32 83 -2.6 27.4 0.701 0.028
19:25 1018 30.06 847 25.01 -0.1 31.9 83 -2.6 27.4 0.645 0.025
19:26 1018 30.06 847 25.01 -0.2 31.7 84 -2.6 27.3 0.605 0.024
19:27 1018 30.06 847 25.01 -0.2 31.6 84 -2.6 27.3 0.527 0.021
19:28 1018 30.06 847 25.01 -0.3 31.4 85 -2.6 27.3 0.504 0.02
19:29 1018 30.06 847 25.01 -0.4 31.3 85 -2.6 27.2 0.374 0.015
19:30 1018 30.06 847 25.01 -0.4 31.2 85 -2.7 27.2 0.273 0.011
19:31 1018 30.06 847 25.01 -0.5 31.1 85 -2.7 27.2 0.182 0.007
19:32 1018 30.06 847 25.01 -0.6 31 86 -2.6 27.2 0.097 0.004
19:33 1018 30.06 847 25.01 -0.6 31 87 -2.5 27.4 0.007 0
19:34 1018 30.06 847 25.01 -0.6 30.9 87 -2.5 27.6 0.019 0.001
19:35 1018 30.06 847 25.01 -0.6 30.8 88 -2.5 27.6 -0.038 -0.001
19:36 1018 30.06 847 25.01 -0.6 30.9 87 -2.5 27.5 -0.071 -0.003
19:37 1018 30.06 847 25.01 -0.6 30.9 87 -2.5 27.5 -0.134 -0.005
19:38 1018 30.06 847 25.01 -0.6 30.8 87 -2.5 27.4 -0.128 -0.005
19:39 1018 30.06 847 25.01 -0.6 30.9 87 -2.5 27.4 -0.161 -0.006
19:40 1018 30.06 847 25.01 -0.7 30.8 87 -2.6 27.4 -0.161 -0.006
19:41 1018 30.06 847 25.01 -0.7 30.8 87 -2.5 27.4 -0.178 -0.007
19:42 1018 30.06 848 25.04 -0.7 30.8 87 -2.6 27.4 -0.195 -0.008
19:43 1018 30.06 848 25.04 -0.7 30.8 87 -2.5 27.4 -0.195 -0.008
19:44 1018 30.06 848 25.04 -0.6 30.8 87 -2.5 27.5 -0.195 -0.008
19:45 1018 30.06 848 25.04 -0.7 30.8 88 -2.5 27.5 -0.2 -0.008
19:46 1018 30.06 848 25.04 -0.6 30.8 88 -2.4 27.6 -0.217 -0.009
19:47 1018 30.06 848 25.04 -0.7 30.8 88 -2.4 27.7 -0.24 -0.009
19:48 1018 30.06 848 25.04 -0.7 30.8 89 -2.3 27.8 -0.24 -0.009
19:49 1018 30.06 848 25.04 -0.6 30.9 88 -2.3 27.8 -0.212 -0.008
19:50 1018 30.06 848 25.04 -0.6 30.9 88 -2.4 27.7 -0.155 -0.006
19:51 1018 30.06 848 25.04 -0.5 31 87 -2.4 27.7 -0.126 -0.005
19:52 1018 30.06 848 25.04 -0.5 31 87 -2.4 27.7 -0.138 -0.005
19:53 1018 30.06 848 25.04 -0.6 30.9 87 -2.5 27.6 -0.138 -0.005
19:54 1018 30.06 848 25.04 -0.6 30.9 87 -2.4 27.6 -0.166 -0.007
19:55 1019 30.09 848 25.04 -0.6 30.9 88 -2.4 27.6 -0.183 -0.007
19:56 1019 30.09 848 25.04 -0.6 30.9 88 -2.4 27.7 -0.206 -0.008
19:57 1019 30.09 848 25.04 -0.7 30.8 88 -2.4 27.6 -0.245 -0.01
19:58 1019 30.09 848 25.04 -0.7 30.8 88 -2.4 27.6 -0.262 -0.01
19:59 1019 30.09 848 25.04 -0.7 30.7 88 -2.5 27.6 -0.29 -0.011
20:00 1019 30.09 848 25.04 -0.7 30.7 88 -2.4 27.6 -0.307 -0.012
20:01 1019 30.09 848 25.04 -0.7 30.7 88 -2.4 27.6 -0.336 -0.013
20:02 1019 30.09 848 25.04 -0.7 30.7 88 -2.4 27.7 -0.387 -0.015
20:03 1019 30.09 848 25.04 -0.8 30.5 89 -2.5 27.5 -0.387 -0.015
20:04 1019 30.09 848 25.04 -0.8 30.5 89 -2.4 27.6 -0.398 -0.016
20:05 1019 30.09 848 25.04 -0.9 30.4 89 -2.5 27.6 -0.454 -0.018
20:06 1019 30.09 848 25.04 -0.9 30.4 89 -2.5 27.6 -0.415 -0.016
20:07 1019 30.09 848 25.04 -0.9 30.3 89 -2.5 27.5 -0.488 -0.019
20:08 1019 30.09 848 25.04 -0.9 30.3 90 -2.5 27.6 -0.494 -0.019
20:09 1019 30.09 848 25.04 -0.9 30.3 90 -2.4 27.7 -0.511 -0.02
20:10 1019 30.09 848 25.04 -0.9 30.3 90 -2.4 27.7 -0.483 -0.019
20:11 1019 30.09 848 25.04 -0.9 30.3 90 -2.3 27.8 -0.471 -0.019
20:12 1019 30.09 848 25.04 -0.9 30.4 91 -2.2 28 -0.505 -0.02
20:13 1019 30.09 848 25.04 -0.9 30.4 90 -2.2 28 -0.449 -0.018
20:14 1019 30.09 848 25.04 -0.9 30.4 90 -2.3 27.8 -0.447 -0.018
20:15 1019 30.09 848 25.04 -0.9 30.4 89 -2.4 27.6 -0.498 -0.02
20:16 1019 30.09 848 25.04 -0.9 30.4 89 -2.5 27.5 -0.532 -0.021
20:17 1019 30.09 848 25.04 -1 30.3 89 -2.6 27.4 -0.589 -0.023
20:18 1019 30.09 848 25.04 -1 30.2 89 -2.6 27.3 -0.617 -0.024
20:19 1019 30.09 848 25.04 -1.1 30.1 88 -2.8 27 -0.719 -0.028
20:20 1019 30.09 848 25.04 -1.2 29.8 88 -2.9 26.8 -0.856 -0.034
20:21 1019 30.09 848 25.04 -1.3 29.7 89 -2.9 26.7 -0.906 -0.036
20:22 1019 30.09 848 25.04 -1.3 29.7 88 -3 26.6 -0.918 -0.036
20:23 1019 30.09 848 25.04 -1.2 29.8 88 -3 26.6 -0.941 -0.037
20:24 1019 30.09 848 25.04 -1.2 29.8 88 -3 26.5 -0.918 -0.036
20:25 1019 30.09 848 25.04 -1.2 29.8 88 -2.9 26.8 -0.952 -0.037
20:26 1019 30.09 848 25.04 -1.2 29.8 89 -2.8 26.9 -0.951 -0.037
20:27 1019 30.09 848 25.04 -1.2 29.8 90 -2.7 27.1 -0.917 -0.036
20:28 1019 30.09 848 25.04 -1.2 29.9 90 -2.7 27.2 -0.86 -0.034
20:29 1019 30.09 848 25.04 -1.1 30.1 90 -2.5 27.4 -0.786 -0.031
20:30 1019 30.09 848 25.04 -1 30.3 90 -2.4 27.7 -0.774 -0.03
20:31 1019 30.09 848 25.04 -0.9 30.4 90 -2.4 27.7 -0.746 -0.029
20:32 1019 30.09 848 25.04 -0.8 30.5 90 -2.4 27.8 -0.66 -0.026
20:33 1019 30.09 848 25.04 -0.8 30.5 89 -2.4 27.7 -0.638 -0.025
20:34 1019 30.09 848 25.04 -0.8 30.6 89 -2.4 27.7 -0.632 -0.025
20:35 1019 30.09 848 25.04 -0.8 30.6 89 -2.4 27.7 -0.637 -0.025
20:36 1019 30.09 848 25.04 -0.7 30.7 89 -2.4 27.7 -0.597 -0.024
20:37 1019 30.09 848 25.04 -0.7 30.7 88 -2.4 27.6 -0.579 -0.023
20:38 1019 30.09 848 25.04 -0.7 30.7 88 -2.4 27.6 -0.505 -0.02
20:39 1019 30.09 848 25.04 -0.7 30.8 88 -2.4 27.6 -0.522 -0.021
20:40 1019 30.09 848 25.04 -0.7 30.8 88 -2.5 27.6 -0.504 -0.02
20:41 1019 30.09 848 25.04 -0.7 30.8 87 -2.5 27.5 -0.543 -0.021
20:42 1019 30.09 848 25.04 -0.7 30.7 88 -2.5 27.5 -0.537 -0.021
20:43 1019 30.09 848 25.04 -0.7 30.8 87 -2.5 27.5 -0.503 -0.02
20:44 1019 30.09 848 25.04 -0.7 30.8 86 -2.8 27 -0.508 -0.02
20:45 1019 30.09 848 25.04 -0.8 30.5 86 -2.9 26.8 -0.598 -0.024
20:46 1019 30.09 848 25.04 -0.9 30.4 87 -2.8 26.9 -0.575 -0.023
20:47 1019 30.09 848 25.04 -0.9 30.4 86 -2.9 26.8 -0.62 -0.024
20:48 1019 30.09 848 25.04 -0.9 30.3 87 -2.9 26.8 -0.626 -0.025
20:49 1019 30.09 848 25.04 -0.9 30.3 87 -2.9 26.8 -0.614 -0.024
20:50 1019 30.09 848 25.04 -1 30.3 86 -3 26.7 -0.642 -0.025
20:51 1019 30.09 848 25.04 -1 30.2 87 -2.9 26.7 -0.653 -0.026
20:52 1019 30.09 848 25.04 -1 30.2 87 -3 26.6 -0.698 -0.027
20:53 1019 30.09 848 25.04 -1.1 30.1 87 -3 26.6 -0.732 -0.029
20:54 1019 30.09 848 25.04 -1.1 30 87 -3 26.6 -0.76 -0.03
20:55 1019 30.09 848 25.04 -1.1 29.9 87 -3 26.5 -0.811 -0.032
20:56 1019 30.09 848 25.04 -1.2 29.8 87 -3.1 26.5 -0.873 -0.034
20:57 1019 30.09 848 25.04 -1.2 29.9 88 -2.9 26.7 -0.839 -0.033
20:58 1019 30.09 848 25.04 -1.2 29.9 88 -2.9 26.8 -0.839 -0.033
20:59 1019 30.09 848 25.04 -1.2 29.9 87 -3 26.6 -0.861 -0.034
21:00 1019 30.09 848 25.04 -1.2 29.8 88 -3 26.6 -0.941 -0.037
21:01 1019 30.09 848 25.04 -1.2 29.9 88 -2.9 26.8 -0.912 -0.036
21:02 1019 30.09 848 25.04 -1.1 29.9 88 -2.8 26.9 -0.827 -0.033
21:03 1019 30.09 848 25.04 -1.2 29.9 88 -3 26.6 -0.821 -0.032
21:04 1019 30.09 848 25.04 -1.2 29.9 88 -2.9 26.7 -0.844 -0.033
21:05 1019 30.09 848 25.04 -1.2 29.8 87 -3.1 26.4 -0.867 -0.034
21:06 1019 30.09 848 25.04 -1.2 29.9 88 -3 26.7 -0.923 -0.036
21:07 1019 30.09 849 25.07 -1.2 29.9 87 -3 26.6 -0.844 -0.033
21:08 1019 30.09 849 25.07 -1.3 29.7 87 -3.1 26.5 -0.844 -0.033
21:09 1019 30.09 848 25.04 -1.2 29.9 87 -3.1 26.4 -0.832 -0.033
21:10 1019 30.09 849 25.07 -1.3 29.6 84 -3.6 25.5 -1.002 -0.039
21:11 1019 30.09 849 25.07 -1.6 29.1 86 -3.6 25.5 -1.251 -0.049
21:12 1019 30.09 849 25.07 -1.7 29 88 -3.4 25.9 -1.28 -0.05
21:13 1019 30.09 849 25.07 -1.6 29.1 89 -3.1 26.4 -1.217 -0.048
21:14 1019 30.09 849 25.07 -1.5 29.2 86 -3.5 25.7 -1.172 -0.046
21:15 1019 30.09 849 25.07 -1.6 29.1 87 -3.5 25.7 -1.172 -0.046
21:16 1019 30.09 849 25.07 -1.6 29.1 86 -3.6 25.5 -1.24 -0.049
21:17 1019 30.09 849 25.07 -1.7 28.9 87 -3.6 25.5 -1.331 -0.052
21:18 1019 30.09 849 25.07 -1.8 28.8 87 -3.7 25.4 -1.382 -0.054
21:19 1019 30.09 849 25.07 -1.7 28.9 86 -3.7 25.3 -1.359 -0.054
21:20 1019 30.09 849 25.07 -1.7 28.9 85 -3.9 25 -1.342 -0.053
21:21 1019 30.09 849 25.07 -1.6 29 85 -3.9 25 -1.33 -0.052
21:22 1019 30.09 849 25.07 -1.7 29 85 -3.8 25.1 -1.274 -0.05
21:23 1019 30.09 849 25.07 -1.7 29 85 -3.9 25 -1.291 -0.051
21:24 1019 30.09 849 25.07 -1.7 28.9 85 -3.9 24.9 -1.33 -0.052
21:25 1019 30.09 849 25.07 -1.7 29 85 -3.9 24.9 -1.346 -0.053
21:26 1019 30.09 849 25.07 -1.7 28.9 85 -4 24.8 -1.38 -0.054
21:27 1019 30.09 849 25.07 -1.7 28.9 85 -4 24.9 -1.351 -0.053
21:28 1020 30.12 849 25.07 -1.7 28.9 85 -4 24.8 -1.345 -0.053
21:29 1020 30.12 849 25.07 -1.7 28.9 84 -4 24.8 -1.362 -0.054
21:30 1020 30.12 849 25.07 -1.7 28.9 84 -4 24.7 -1.373 -0.054
21:31 1020 30.12 849 25.07 -1.7 29 84 -4.1 24.6 -1.321 -0.052
21:32 1020 30.12 849 25.07 -1.7 29 83 -4.2 24.4 -1.299 -0.051
21:33 1020 30.12 849 25.07 -1.6 29.1 82 -4.3 24.2 -1.253 -0.049
21:34 1020 30.12 849 25.07 -1.6 29.1 81 -4.4 24.1 -1.281 -0.05
21:35 1020 30.12 849 25.07 -1.6 29.1 81 -4.5 24 -1.236 -0.049
21:36 1020 30.12 849 25.07 -1.6 29 81 -4.5 23.9 -1.269 -0.05
21:37 1020 30.12 849 25.07 -1.7 29 80 -4.6 23.7 -1.303 -0.051
21:38 1020 30.12 849 25.07 -1.7 29 80 -4.7 23.6 -1.269 -0.05
21:39 1020 30.12 849 25.07 -1.7 29 80 -4.7 23.6 -1.337 -0.053
21:40 1020 30.12 849 25.07 -1.8 28.9 80 -4.8 23.4 -1.348 -0.053
21:41 1020 30.12 849 25.07 -1.8 28.8 79 -4.9 23.2 -1.382 -0.054
21:42 1020 30.12 849 25.07 -1.7 28.9 79 -4.9 23.1 -1.359 -0.054
21:43 1020 30.12 849 25.07 -1.7 29 79 -4.9 23.2 -1.331 -0.052
21:44 1020 30.12 849 25.07 -1.7 28.9 79 -4.9 23.1 -1.325 -0.052
21:45 1020 30.12 849 25.07 -1.7 29 79 -4.9 23.1 -1.342 -0.053
21:46 1020 30.12 849 25.07 -1.7 29 79 -4.9 23.1 -1.296 -0.051
21:47 1020 30.12 849 25.07 -1.7 29 79 -4.9 23.2 -1.33 -0.052
21:48 1020 30.12 849 25.07 -1.7 28.9 79 -4.9 23.1 -1.313 -0.052
21:49 1020 30.12 849 25.07 -1.7 28.9 79 -4.9 23.1 -1.313 -0.052
21:50 1020 30.12 849 25.07 -1.8 28.7 79 -4.9 23.1 -1.426 -0.056
21:51 1020 30.12 849 25.07 -1.9 28.7 80 -4.8 23.3 -1.449 -0.057
21:52 1020 30.12 849 25.07 -1.9 28.5 81 -4.8 23.3 -1.545 -0.061
21:53 1020 30.12 849 25.07 -2 28.3 81 -4.9 23.3 -1.619 -0.064
21:54 1020 30.12 849 25.07 -2.1 28.2 82 -4.8 23.4 -1.698 -0.067
21:55 1020 30.12 849 25.07 -2.2 28.1 83 -4.7 23.6 -1.783 -0.07
21:56 1020 30.12 849 25.07 -2.2 28.1 84 -4.6 23.7 -1.8 -0.071
21:57 1020 30.12 849 25.07 -2.3 27.9 84 -4.6 23.7 -1.857 -0.073
21:58 1020 30.12 849 25.07 -2.3 27.9 85 -4.5 23.8 -1.885 -0.074
21:59 1020 30.12 849 25.07 -2.3 27.9 85 -4.5 23.9 -1.902 -0.075
22:00 1020 30.12 849 25.07 -2.2 28 85 -4.4 24.1 -1.811 -0.071
22:01 1020 30.12 849 25.07 -2.2 28.1 85 -4.3 24.2 -1.789 -0.07
22:02 1020 30.12 849 25.07 -2.2 28.1 86 -4.2 24.4 -1.721 -0.068
22:03 1020 30.12 849 25.07 -2.1 28.3 86 -4 24.7 -1.698 -0.067
22:04 1020 30.12 849 25.07 -2 28.4 87 -3.9 25 -1.59 -0.063
22:05 1020 30.12 849 25.07 -1.9 28.6 87 -3.8 25.2 -1.483 -0.058
22:06 1020 30.12 849 25.07 -1.8 28.8 86 -3.8 25.2 -1.369 -0.054
22:07 1020 30.12 849 25.07 -1.7 29 86 -3.8 25.2 -1.29 -0.051
22:08 1020 30.12 849 25.07 -1.6 29 85 -3.9 25 -1.25 -0.049
22:09 1020 30.12 849 25.07 -1.6 29.1 84 -4 24.9 -1.222 -0.048
22:10 1020 30.12 849 25.07 -1.6 29.1 84 -4 24.9 -1.227 -0.048
22:11 1020 30.12 849 25.07 -1.6 29.1 84 -4 24.9 -1.205 -0.047
22:12 1020 30.12 849 25.07 -1.6 29.1 84 -4 24.8 -1.227 -0.048
22:13 1020 30.12 849 25.07 -1.6 29.1 84 -4.1 24.7 -1.222 -0.048
22:14 1020 30.12 849 25.07 -1.7 29 83 -4.1 24.6 -1.261 -0.05
22:15 1020 30.12 849 25.07 -1.7 28.9 83 -4.2 24.5 -1.295 -0.051
22:16 1020 30.12 849 25.07 -1.8 28.8 83 -4.2 24.4 -1.358 -0.053
22:17 1020 30.12 849 25.07 -1.9 28.7 84 -4.3 24.3 -1.414 -0.056
22:18 1020 30.12 849 25.07 -1.9 28.6 84 -4.3 24.3 -1.522 -0.06
22:19 1020 30.12 849 25.07 -2 28.5 85 -4.2 24.5 -1.556 -0.061
22:20 1020 30.12 849 25.07 -1.9 28.5 85 -4.1 24.7 -1.494 -0.059
22:21 1020 30.12 849 25.07 -1.8 28.7 85 -4 24.7 -1.448 -0.057
22:22 1020 30.12 849 25.07 -1.8 28.8 85 -4 24.9 -1.38 -0.054
22:23 1020 30.12 849 25.07 -1.7 28.9 85 -3.9 25 -1.307 -0.051
22:24 1020 30.12 849 25.07 -1.7 29 86 -3.8 25.2 -1.205 -0.047
22:25 1020 30.12 849 25.07 -1.6 29.1 86 -3.6 25.5 -1.193 -0.047
22:26 1020 30.12 849 25.07 -1.6 29.2 86 -3.6 25.5 -1.154 -0.045
22:27 1020 30.12 849 25.07 -1.5 29.2 87 -3.5 25.8 -1.114 -0.044
22:28 1020 30.12 849 25.07 -1.5 29.3 87 -3.4 26 -1.091 -0.043
22:29 1020 30.12 849 25.07 -1.4 29.4 87 -3.3 26.1 -1.001 -0.039
22:30 1020 30.12 849 25.07 -1.5 29.4 87 -3.3 26.1 -0.995 -0.039
22:31 1020 30.12 849 25.07 -1.4 29.4 87 -3.3 26.1 -1.057 -0.042
22:32 1020 30.12 849 25.07 -1.5 29.4 87 -3.3 26.1 -1.029 -0.041
22:33 1020 30.12 849 25.07 -1.5 29.4 87 -3.3 26 -1.063 -0.042
22:34 1020 30.12 849 25.07 -1.5 29.2 88 -3.4 26 -1.091 -0.043
22:35 1020 30.12 849 25.07 -1.6 29.1 88 -3.4 25.9 -1.148 -0.045
22:36 1020 30.12 849 25.07 -1.6 29 88 -3.4 25.9 -1.216 -0.048
22:37 1020 30.12 849 25.07 -1.7 29 88 -3.4 25.9 -1.267 -0.05
22:38 1020 30.12 849 25.07 -1.7 28.9 89 -3.4 25.9 -1.312 -0.052
22:39 1020 30.12 849 25.07 -1.8 28.8 89 -3.4 25.8 -1.358 -0.053
22:40 1020 30.12 849 25.07 -1.8 28.8 89 -3.4 26 -1.403 -0.055
22:41 1020 30.12 849 25.07 -1.8 28.7 89 -3.4 25.9 -1.409 -0.055
22:42 1020 30.12 849 25.07 -1.8 28.8 89 -3.3 26.1 -1.363 -0.054
22:43 1020 30.12 849 25.07 -1.7 28.9 89 -3.3 26 -1.301 -0.051
22:44 1020 30.12 849 25.07 -1.7 29 88 -3.3 26 -1.312 -0.052
22:45 1020 30.12 849 25.07 -1.7 28.9 89 -3.3 26.1 -1.312 -0.052
22:46 1020 30.12 849 25.07 -1.6 29 89 -3.2 26.2 -1.222 -0.048
22:47 1020 30.12 849 25.07 -1.5 29.4 89 -3.1 26.4 -1.108 -0.044
22:48 1020 30.12 849 25.07 -1.3 29.6 88 -3.1 26.4 -0.933 -0.037
22:49 1020 30.12 849 25.07 -1.2 29.8 87 -3.1 26.3 -0.875 -0.034
22:50 1020 30.12 849 25.07 -1.1 30 86 -3.1 26.3 -0.767 -0.03
22:51 1020 30.12 849 25.07 -1.1 30 86 -3.2 26.3 -0.739 -0.029
22:52 1020 30.12 849 25.07 -1.1 30 86 -3.2 26.3 -0.705 -0.028
22:53 1020 30.12 849 25.07 -1.1 30 86 -3.2 26.3 -0.722 -0.028
22:54 1020 30.12 849 25.07 -1.2 29.9 86 -3.3 26.1 -0.762 -0.03
22:55 1020 30.12 849 25.07 -1.2 29.8 86 -3.3 26.1 -0.813 -0.032
22:56 1020 30.12 849 25.07 -1.2 29.9 85 -3.4 26 -0.869 -0.034
22:57 1020 30.12 849 25.07 -1 30.1 84 -3.5 25.7 -0.716 -0.028
22:58 1020 30.12 849 25.07 -0.9 30.4 83 -3.4 25.8 -0.569 -0.022
22:59 1020 30.12 849 25.07 -0.9 30.4 83 -3.4 25.8 -0.513 -0.02
23:00 1020 30.12 849 25.07 -0.9 30.3 83 -3.4 25.9 -0.547 -0.022
23:01 1020 30.12 849 25.07 -1 30.2 84 -3.4 26 -0.592 -0.023
23:02 1020 30.12 849 25.07 -1.1 30 85 -3.3 26 -0.643 -0.025
23:03 1020 30.12 849 25.07 -1.2 29.9 85 -3.3 26.1 -0.717 -0.028
23:04 1020 30.12 849 25.07 -1.2 29.8 86 -3.3 26.1 -0.779 -0.031
23:05 1020 30.12 849 25.07 -1.2 29.8 86 -3.3 26.1 -0.819 -0.032
23:06 1020 30.12 849 25.07 -1.3 29.7 86 -3.3 26 -0.847 -0.033
23:07 1020 30.12 849 25.07 -1.3 29.7 86 -3.3 26 -0.898 -0.035
23:08 1020 30.12 849 25.07 -1.3 29.6 86 -3.3 26 -0.927 -0.036
23:09 1020 30.12 849 25.07 -1.3 29.6 86 -3.4 25.9 -0.938 -0.037
23:10 1020 30.12 849 25.07 -1.4 29.6 86 -3.4 25.9 -0.927 -0.036
23:11 1020 30.12 849 25.07 -1.4 29.5 86 -3.4 25.9 -0.966 -0.038
23:12 1020 30.12 849 25.07 -1.5 29.4 86 -3.5 25.6 -0.995 -0.039
23:13 1020 30.12 849 25.07 -1.5 29.2 86 -3.5 25.7 -1.057 -0.042
23:14 1020 30.12 849 25.07 -1.6 29.1 87 -3.6 25.6 -1.159 -0.046
23:15 1020 30.12 849 25.07 -1.7 29 87 -3.6 25.6 -1.255 -0.049
23:16 1020 30.12 849 25.07 -1.7 28.9 87 -3.6 25.4 -1.278 -0.05
23:17 1020 30.12 849 25.07 -1.8 28.8 87 -3.6 25.5 -1.34 -0.053
23:18 1020 30.12 849 25.07 -1.8 28.8 87 -3.6 25.4 -1.357 -0.053
23:19 1020 30.12 849 25.07 -1.8 28.8 87 -3.6 25.5 -1.414 -0.056
23:20 1020 30.12 849 25.07 -1.8 28.7 87 -3.6 25.5 -1.391 -0.055
23:21 1020 30.12 849 25.07 -1.8 28.7 87 -3.6 25.4 -1.386 -0.055
23:22 1020 30.12 849 25.07 -1.8 28.7 86 -3.8 25.1 -1.391 -0.055
23:23 1020 30.12 849 25.07 -1.9 28.7 86 -3.9 25 -1.471 -0.058
23:24 1020 30.12 849 25.07 -1.9 28.6 86 -4 24.8 -1.482 -0.058
23:25 1020 30.12 849 25.07 -1.9 28.5 85 -4.1 24.7 -1.516 -0.06
23:26 1020 30.12 849 25.07 -1.9 28.5 85 -4.1 24.6 -1.55 -0.061
23:27 1020 30.12 849 25.07 -1.9 28.5 85 -4.1 24.6 -1.545 -0.061
23:28 1020 30.12 849 25.07 -1.9 28.6 85 -4.1 24.6 -1.499 -0.059
23:29 1020 30.12 849 25.07 -1.9 28.7 85 -4.1 24.7 -1.477 -0.058
23:30 1020 30.12 849 25.07 -1.8 28.8 85 -4 24.8 -1.454 -0.057
23:31 1020 30.12 849 25.07 -1.8 28.8 85 -3.9 24.9 -1.397 -0.055
23:32 1020 30.12 849 25.07 -1.6 29.2 84 -3.9 25 -1.233 -0.049
23:33 1020 30.12 849 25.07 -1.4 29.5 83 -3.8 25.1 -1.001 -0.039
23:34 1020 30.12 849 25.07 -1.3 29.8 83 -3.8 25.2 -0.91 -0.036
23:35 1020 30.12 849 25.07 -1.1 30 82 -3.7 25.3 -0.729 -0.029
23:36 1020 30.12 849 25.07 -1 30.2 82 -3.7 25.4 -0.615 -0.024
23:37 1020 30.12 849 25.07 -0.9 30.4 81 -3.7 25.4 -0.525 -0.021
23:38 1020 30.12 849 25.07 -0.8 30.5 81 -3.7 25.3 -0.479 -0.019
23:39 1020 30.12 849 25.07 -0.8 30.5 81 -3.7 25.3 -0.423 -0.017
23:40 1020 30.12 849 25.07 -0.8 30.6 82 -3.5 25.7 -0.491 -0.019
23:41 1020 30.12 849 25.07 -0.9 30.4 82 -3.6 25.6 -0.536 -0.021
23:42 1020 30.12 849 25.07 -0.9 30.3 83 -3.6 25.6 -0.553 -0.022
23:43 1020 30.12 849 25.07 -1 30.3 83 -3.6 25.6 -0.581 -0.023
23:44 1020 30.12 849 25.07 -1.1 30.1 83 -3.5 25.7 -0.632 -0.025
23:45 1020 30.12 849 25.07 -1.1 30.1 83 -3.5 25.6 -0.666 -0.026
23:46 1020 30.12 849 25.07 -1.1 30.1 84 -3.5 25.7 -0.661 -0.026
23:47 1020 30.12 849 25.07 -1.1 30 84 -3.5 25.7 -0.661 -0.026
23:48 1020 30.12 849 25.07 -1.1 30.1 84 -3.5 25.8 -0.683 -0.027
23:49 1020 30.12 849 25.07 -1.1 30 84 -3.5 25.7 -0.7 -0.028
23:50 1020 30.12 849 25.07 -1.1 30 84 -3.4 25.8 -0.695 -0.027
23:51 1020 30.12 849 25.07 -1.1 30 84 -3.5 25.8 -0.672 -0.026
23:52 1020 30.12 849 25.07 -1.1 30 84 -3.5 25.8 -0.706 -0.028
23:53 1020 30.12 849 25.07 -1.1 30 84 -3.4 25.8 -0.672 -0.026
23:54 1020 30.12 849 25.07 -1.1 30.1 84 -3.4 25.8 -0.672 -0.026
23:55 1020 30.12 849 25.07 -1.1 30 84 -3.5 25.7 -0.632 -0.025
23:56 1020 30.12 849 25.07 -1 30.1 84 -3.4 25.9 -0.627 -0.025
23:57 1020 30.12 849 25.07 -0.9 30.3 84 -3.3 26.1 -0.519 -0.02
23:58 1020 30.12 849 25.07 -0.9 30.4 84 -3.3 26.1 -0.474 -0.019
23:59 1020 30.12 849 25.07 -0.8 30.5 84 -3.3 26.1 -0.445 -0.018
24:00 1020 30.12 849 25.07 -0.8 30.6 83 -3.3 26.1 -0.417 -0.016